Wetterdaten: Sonntag, 03.02.2019
Datum Zeit Temp. Aussen Temp. o. S. +5cm Feuchte Auss Luftdruck Regen Sonnenschein Regendauer Solar Windben Empfang
03.02.2019 00:00 0,7 C 0,0 C 0,0 C 98 % 1008,2 hPa 0,0 l/m 0 min 0 min 0 W/m 22,5 km/h (4 Bft) 97,87 %
03.02.2019 00:02 0,6 C 0,0 C 0,0 C 98 % 1008,1 hPa 0,0 l/m 0 min 0 min 0 W/m 9,7 km/h (2 Bft) 100,00 %
03.02.2019 00:04 0,6 C 0,0 C 0,0 C 98 % 1008,2 hPa 0,0 l/m 0 min 0 min 0 W/m 12,9 km/h (3 Bft) 100,00 %
03.02.2019 00:07 0,6 C 0,0 C -0,6 C 98 % 1008,4 hPa 0,0 l/m 0 min 0 min 0 W/m 16,1 km/h (3 Bft) 100,00 %
03.02.2019 00:08 0,6 C 0,0 C -0,6 C 98 % 1008,4 hPa 0,0 l/m 0 min 0 min 0 W/m 16,1 km/h (3 Bft) 100,00 %
03.02.2019 00:10 0,6 C 0,0 C -0,6 C 98 % 1008,5 hPa 0,0 l/m 0 min 0 min 0 W/m 12,9 km/h (3 Bft) 97,83 %
03.02.2019 00:12 0,6 C 0,0 C -0,6 C 98 % 1008,5 hPa 0,0 l/m 0 min 0 min 0 W/m 12,9 km/h (3 Bft) 100,00 %
03.02.2019 00:14 0,6 C 0,0 C -0,6 C 98 % 1008,5 hPa 0,0 l/m 0 min 0 min 0 W/m 6,4 km/h (2 Bft) 97,87 %
03.02.2019 00:16 0,6 C 0,0 C -0,6 C 98 % 1008,5 hPa 0,0 l/m 0 min 0 min 0 W/m 12,9 km/h (3 Bft) 100,00 %
03.02.2019 00:18 0,6 C 0,0 C -0,6 C 98 % 1008,5 hPa 0,0 l/m 0 min 0 min 0 W/m 9,7 km/h (2 Bft) 93,62 %
03.02.2019 00:20 0,6 C 0,0 C -0,6 C 98 % 1008,5 hPa 0,0 l/m 0 min 0 min 0 W/m 6,4 km/h (2 Bft) 100,00 %
03.02.2019 00:22 0,6 C 0,0 C -0,6 C 98 % 1008,6 hPa 0,0 l/m 0 min 0 min 0 W/m 6,4 km/h (2 Bft) 100,00 %
03.02.2019 00:24 0,6 C 0,0 C -0,6 C 98 % 1008,6 hPa 0,0 l/m 0 min 0 min 0 W/m 9,7 km/h (2 Bft) 100,00 %
03.02.2019 00:26 0,6 C 0,0 C -0,6 C 98 % 1008,6 hPa 0,0 l/m 0 min 0 min 0 W/m 9,7 km/h (2 Bft) 97,87 %
03.02.2019 00:28 0,6 C 0,0 C -0,6 C 99 % 1008,6 hPa 0,0 l/m 0 min 0 min 0 W/m 0,0 km/h (0 Bft) 100,00 %
03.02.2019 00:30 0,5 C 0,0 C -0,6 C 98 % 1008,6 hPa 0,0 l/m 0 min 0 min 0 W/m 6,4 km/h (2 Bft) 100,00 %
03.02.2019 00:32 0,6 C 0,0 C -0,6 C 99 % 1008,6 hPa 0,0 l/m 0 min 0 min 0 W/m 0,0 km/h (0 Bft) 97,87 %
03.02.2019 00:34 0,5 C 0,0 C -0,6 C 99 % 1008,6 hPa 0,0 l/m 0 min 0 min 0 W/m 3,2 km/h (1 Bft) 97,83 %
03.02.2019 00:36 0,5 C 0,0 C -0,6 C 99 % 1008,6 hPa 0,0 l/m 0 min 0 min 0 W/m 6,4 km/h (2 Bft) 97,87 %
03.02.2019 00:38 0,5 C 0,0 C -0,6 C 99 % 1008,7 hPa 0,0 l/m 0 min 0 min 0 W/m 3,2 km/h (1 Bft) 100,00 %
03.02.2019 00:40 0,5 C 0,0 C -0,6 C 99 % 1008,6 hPa 0,0 l/m 0 min 0 min 0 W/m 9,7 km/h (2 Bft) 100,00 %
03.02.2019 00:42 0,5 C 0,0 C -0,6 C 99 % 1008,6 hPa 0,0 l/m 0 min 0 min 0 W/m 0,0 km/h (0 Bft) 100,00 %
03.02.2019 00:44 0,5 C 0,0 C -0,6 C 99 % 1008,6 hPa 0,0 l/m 0 min 0 min 0 W/m 3,2 km/h (1 Bft) 100,00 %
03.02.2019 00:46 0,5 C 0,0 C -0,6 C 99 % 1008,6 hPa 0,0 l/m 0 min 0 min 0 W/m 0,0 km/h (0 Bft) 100,00 %
03.02.2019 00:48 0,5 C 0,0 C -0,6 C 99 % 1008,6 hPa 0,0 l/m 0 min 0 min 0 W/m 3,2 km/h (1 Bft) 100,00 %
03.02.2019 00:50 0,5 C 0,0 C -0,6 C 99 % 1008,7 hPa 0,0 l/m 0 min 0 min 0 W/m 12,9 km/h (3 Bft) 100,00 %
03.02.2019 00:52 0,5 C 0,0 C -0,6 C 99 % 1008,6 hPa 0,0 l/m 0 min 0 min 0 W/m 3,2 km/h (1 Bft) 97,87 %
03.02.2019 00:54 0,5 C 0,0 C -0,6 C 99 % 1008,6 hPa 0,0 l/m 0 min 0 min 0 W/m 6,4 km/h (2 Bft) 97,87 %
03.02.2019 00:56 0,5 C 0,0 C -0,6 C 99 % 1008,6 hPa 0,0 l/m 0 min 0 min 0 W/m 9,7 km/h (2 Bft) 100,00 %
03.02.2019 00:58 0,5 C 0,0 C -0,6 C 99 % 1008,6 hPa 0,0 l/m 0 min 0 min 0 W/m 9,7 km/h (2 Bft) 97,87 %
03.02.2019 01:00 0,5 C 0,0 C -0,6 C 99 % 1008,6 hPa 0,0 l/m 0 min 0 min 0 W/m 6,4 km/h (2 Bft) 100,00 %
03.02.2019 01:02 0,5 C -0,6 C -0,6 C 99 % 1008,6 hPa 0,0 l/m 0 min 0 min 0 W/m 3,2 km/h (1 Bft) 97,87 %
03.02.2019 01:04 0,5 C -0,6 C -1,1 C 99 % 1008,6 hPa 0,0 l/m 0 min 0 min 0 W/m 3,2 km/h (1 Bft) 97,87 %
03.02.2019 01:06 0,5 C -0,6 C -1,1 C 99 % 1008,6 hPa 0,0 l/m 0 min 0 min 0 W/m 6,4 km/h (2 Bft) 100,00 %
03.02.2019 01:08 0,5 C -0,6 C -1,1 C 99 % 1008,8 hPa 0,0 l/m 0 min 0 min 0 W/m 6,4 km/h (2 Bft) 100,00 %
03.02.2019 01:10 0,4 C -0,6 C -1,1 C 98 % 1008,8 hPa 0,0 l/m 0 min 0 min 0 W/m 6,4 km/h (2 Bft) 100,00 %
03.02.2019 01:12 0,3 C -0,6 C -1,1 C 98 % 1008,9 hPa 0,0 l/m 0 min 0 min 0 W/m 12,9 km/h (3 Bft) 97,87 %
03.02.2019 01:14 0,3 C -0,6 C -1,1 C 98 % 1008,9 hPa 0,0 l/m 0 min 0 min 0 W/m 19,3 km/h (3 Bft) 100,00 %
03.02.2019 01:16 0,3 C -0,6 C -1,1 C 98 % 1008,9 hPa 0,0 l/m 0 min 0 min 0 W/m 12,9 km/h (3 Bft) 97,87 %
03.02.2019 01:18 0,2 C -0,6 C -1,1 C 98 % 1009,0 hPa 0,0 l/m 0 min 0 min 0 W/m 9,7 km/h (2 Bft) 93,62 %
03.02.2019 01:20 0,2 C -0,6 C -1,1 C 99 % 1009,1 hPa 0,0 l/m 0 min 0 min 0 W/m 12,9 km/h (3 Bft) 95,65 %
03.02.2019 01:22 0,2 C -0,6 C -1,1 C 99 % 1009,2 hPa 0,0 l/m 0 min 0 min 0 W/m 6,4 km/h (2 Bft) 97,87 %
03.02.2019 01:24 0,2 C -0,6 C -1,1 C 99 % 1009,1 hPa 0,0 l/m 0 min 0 min 0 W/m 9,7 km/h (2 Bft) 95,74 %
03.02.2019 01:26 0,1 C -0,6 C -1,1 C 99 % 1009,1 hPa 0,0 l/m 0 min 0 min 0 W/m 6,4 km/h (2 Bft) 97,87 %
03.02.2019 01:28 0,1 C -0,6 C -1,1 C 99 % 1009,1 hPa 0,0 l/m 0 min 0 min 0 W/m 9,7 km/h (2 Bft) 93,62 %
03.02.2019 01:30 0,1 C -0,6 C -1,1 C 99 % 1009,1 hPa 0,0 l/m 0 min 0 min 0 W/m 6,4 km/h (2 Bft) 95,74 %
03.02.2019 01:32 0,1 C -0,6 C -1,1 C 99 % 1009,1 hPa 0,0 l/m 0 min 0 min 0 W/m 12,9 km/h (3 Bft) 97,83 %
03.02.2019 01:34 0,1 C -0,6 C -1,1 C 99 % 1009,1 hPa 0,0 l/m 0 min 0 min 0 W/m 6,4 km/h (2 Bft) 95,74 %
03.02.2019 01:36 0,1 C -0,6 C -1,1 C 99 % 1009,1 hPa 0,0 l/m 0 min 0 min 0 W/m 3,2 km/h (1 Bft) 95,74 %
03.02.2019 01:38 0,1 C -0,6 C -1,1 C 99 % 1009,1 hPa 0,0 l/m 0 min 0 min 0 W/m 6,4 km/h (2 Bft) 95,74 %
03.02.2019 01:40 0,1 C -0,6 C -1,1 C 98 % 1009,1 hPa 0,0 l/m 0 min 0 min 0 W/m 6,4 km/h (2 Bft) 95,74 %
03.02.2019 01:42 0,1 C -0,6 C -1,1 C 98 % 1009,1 hPa 0,0 l/m 0 min 0 min 0 W/m 3,2 km/h (1 Bft) 97,83 %
03.02.2019 01:44 0,1 C -0,6 C -1,1 C 98 % 1009,2 hPa 0,0 l/m 0 min 0 min 0 W/m 6,4 km/h (2 Bft) 95,74 %
03.02.2019 01:46 0,1 C -0,6 C -1,1 C 98 % 1009,2 hPa 0,0 l/m 0 min 0 min 0 W/m 6,4 km/h (2 Bft) 93,62 %
03.02.2019 01:48 0,0 C -0,6 C -1,1 C 98 % 1009,1 hPa 0,0 l/m 0 min 0 min 0 W/m 3,2 km/h (1 Bft) 95,74 %
03.02.2019 01:50 0,0 C -0,6 C -1,1 C 98 % 1009,2 hPa 0,0 l/m 0 min 0 min 0 W/m 0,0 km/h (0 Bft) 95,74 %
03.02.2019 01:52 0,0 C -1,1 C -1,1 C 98 % 1009,2 hPa 0,0 l/m 0 min 0 min 0 W/m 9,7 km/h (2 Bft) 93,62 %
03.02.2019 01:54 0,0 C -1,1 C -1,1 C 98 % 1009,3 hPa 0,0 l/m 0 min 0 min 0 W/m 6,4 km/h (2 Bft) 93,48 %
03.02.2019 01:56 -0,1 C -1,1 C -1,1 C 98 % 1009,4 hPa 0,0 l/m 0 min 0 min 0 W/m 0,0 km/h (0 Bft) 91,49 %
03.02.2019 01:58 -0,1 C -1,1 C -1,7 C 98 % 1009,4 hPa 0,0 l/m 0 min 0 min 0 W/m 3,2 km/h (1 Bft) 93,62 %
03.02.2019 02:00 -0,1 C -1,1 C -1,7 C 98 % 1009,5 hPa 0,0 l/m 0 min 0 min 0 W/m 9,7 km/h (2 Bft) 89,36 %
03.02.2019 02:02 -0,1 C -1,1 C -1,7 C 98 % 1009,5 hPa 0,0 l/m 0 min 0 min 0 W/m 9,7 km/h (2 Bft) 93,62 %
03.02.2019 02:04 -0,1 C -1,1 C -1,1 C 98 % 1009,7 hPa 0,0 l/m 0 min 0 min 0 W/m 6,4 km/h (2 Bft) 93,62 %
03.02.2019 02:06 -0,1 C -1,1 C -1,7 C 99 % 1009,6 hPa 0,0 l/m 0 min 0 min 0 W/m 3,2 km/h (1 Bft) 93,48 %
03.02.2019 02:08 -0,2 C -1,1 C -1,7 C 99 % 1009,6 hPa 0,0 l/m 0 min 0 min 0 W/m 3,2 km/h (1 Bft) 95,74 %
03.02.2019 02:10 -0,2 C -1,1 C -1,7 C 99 % 1009,7 hPa 0,0 l/m 0 min 0 min 0 W/m 6,4 km/h (2 Bft) 93,62 %
03.02.2019 02:12 -0,2 C -1,1 C -1,7 C 99 % 1009,8 hPa 0,0 l/m 0 min 0 min 0 W/m 6,4 km/h (2 Bft) 93,62 %
03.02.2019 02:14 -0,2 C -1,1 C -1,7 C 99 % 1009,8 hPa 0,0 l/m 0 min 0 min 0 W/m 6,4 km/h (2 Bft) 95,74 %
03.02.2019 02:16 -0,2 C -1,1 C -1,7 C 99 % 1009,9 hPa 0,0 l/m 0 min 0 min 0 W/m 3,2 km/h (1 Bft) 91,49 %
03.02.2019 02:18 -0,2 C -1,1 C -1,7 C 99 % 1009,9 hPa 0,0 l/m 0 min 0 min 0 W/m 0,0 km/h (0 Bft) 95,65 %
03.02.2019 02:20 -0,3 C -1,1 C -1,7 C 99 % 1010,0 hPa 0,0 l/m 0 min 0 min 0 W/m 0,0 km/h (0 Bft) 97,87 %
03.02.2019 02:22 -0,3 C -1,1 C -1,7 C 99 % 1010,0 hPa 0,0 l/m 0 min 0 min 0 W/m 0,0 km/h (0 Bft) 95,74 %
03.02.2019 02:24 -0,3 C -1,1 C -1,7 C 99 % 1010,0 hPa 0,0 l/m 0 min 0 min 0 W/m 0,0 km/h (0 Bft) 97,87 %
03.02.2019 02:26 -0,3 C -1,1 C -1,1 C 98 % 1010,0 hPa 0,0 l/m 0 min 0 min 0 W/m 0,0 km/h (0 Bft) 95,74 %
03.02.2019 02:28 -0,3 C -1,1 C -1,7 C 98 % 1010,0 hPa 0,0 l/m 0 min 0 min 0 W/m 3,2 km/h (1 Bft) 97,87 %
03.02.2019 02:30 -0,3 C -1,1 C -1,7 C 98 % 1010,1 hPa 0,0 l/m 0 min 0 min 0 W/m 0,0 km/h (0 Bft) 97,83 %
03.02.2019 02:32 -0,3 C -1,1 C -1,7 C 98 % 1010,1 hPa 0,0 l/m 0 min 0 min 0 W/m 0,0 km/h (0 Bft) 97,87 %
03.02.2019 02:34 -0,3 C -1,1 C -1,7 C 98 % 1010,2 hPa 0,0 l/m 0 min 0 min 0 W/m 0,0 km/h (0 Bft) 95,74 %
03.02.2019 02:36 -0,3 C -1,1 C -1,7 C 98 % 1010,3 hPa 0,0 l/m 0 min 0 min 0 W/m 0,0 km/h (0 Bft) 97,87 %
03.02.2019 02:38 -0,3 C -1,1 C -1,7 C 98 % 1010,5 hPa 0,0 l/m 0 min 0 min 0 W/m 0,0 km/h (0 Bft) 100,00 %
03.02.2019 02:40 -0,3 C -1,1 C -1,7 C 98 % 1010,4 hPa 0,0 l/m 0 min 0 min 0 W/m 0,0 km/h (0 Bft) 100,00 %
03.02.2019 02:42 -0,3 C -1,1 C -1,7 C 98 % 1010,4 hPa 0,0 l/m 0 min 0 min 0 W/m 0,0 km/h (0 Bft) 95,74 %
03.02.2019 02:44 -0,4 C -1,1 C -1,7 C 98 % 1010,5 hPa 0,0 l/m 0 min 0 min 0 W/m 0,0 km/h (0 Bft) 100,00 %
03.02.2019 02:46 -0,4 C -1,1 C -1,1 C 98 % 1010,5 hPa 0,0 l/m 0 min 0 min 0 W/m 0,0 km/h (0 Bft) 97,87 %
03.02.2019 02:48 -0,4 C -1,1 C -1,1 C 98 % 1010,6 hPa 0,0 l/m 0 min 0 min 0 W/m 0,0 km/h (0 Bft) 100,00 %
03.02.2019 02:50 -0,4 C -1,1 C -1,1 C 98 % 1010,6 hPa 0,0 l/m 0 min 0 min 0 W/m 0,0 km/h (0 Bft) 100,00 %
03.02.2019 02:52 -0,4 C -1,1 C -1,1 C 98 % 1010,5 hPa 0,0 l/m 0 min 0 min 0 W/m 0,0 km/h (0 Bft) 97,87 %
03.02.2019 02:54 -0,4 C -1,1 C -1,1 C 98 % 1010,5 hPa 0,0 l/m 0 min 0 min 0 W/m 3,2 km/h (1 Bft) 97,87 %
03.02.2019 02:56 -0,4 C -1,1 C -1,1 C 98 % 1010,5 hPa 0,0 l/m 0 min 0 min 0 W/m 0,0 km/h (0 Bft) 100,00 %
03.02.2019 02:58 -0,4 C -1,1 C -1,1 C 98 % 1010,7 hPa 0,0 l/m 0 min 0 min 0 W/m 0,0 km/h (0 Bft) 100,00 %
03.02.2019 03:00 -0,4 C -1,1 C -1,1 C 98 % 1010,7 hPa 0,0 l/m 0 min 0 min 0 W/m 0,0 km/h (0 Bft) 100,00 %
03.02.2019 03:02 -0,4 C -0,6 C -1,1 C 98 % 1010,7 hPa 0,0 l/m 0 min 0 min 0 W/m 3,2 km/h (1 Bft) 100,00 %
03.02.2019 03:04 -0,3 C -0,6 C -1,1 C 98 % 1010,7 hPa 0,0 l/m 0 min 0 min 0 W/m 0,0 km/h (0 Bft) 100,00 %
03.02.2019 03:06 -0,3 C -0,6 C -1,1 C 98 % 1010,7 hPa 0,0 l/m 0 min 0 min 0 W/m 0,0 km/h (0 Bft) 97,87 %
03.02.2019 03:08 -0,3 C -0,6 C -1,1 C 98 % 1010,7 hPa 0,0 l/m 0 min 0 min 0 W/m 3,2 km/h (1 Bft) 100,00 %
03.02.2019 03:10 -0,3 C -0,6 C -1,1 C 98 % 1010,8 hPa 0,0 l/m 0 min 0 min 0 W/m 3,2 km/h (1 Bft) 97,87 %
03.02.2019 03:12 -0,3 C -0,6 C -1,1 C 98 % 1010,7 hPa 0,0 l/m 0 min 0 min 0 W/m 6,4 km/h (2 Bft) 100,00 %
03.02.2019 03:14 -0,3 C -0,6 C -1,1 C 98 % 1010,7 hPa 0,0 l/m 0 min 0 min 0 W/m 3,2 km/h (1 Bft) 100,00 %
03.02.2019 03:16 -0,3 C -0,6 C -1,1 C 98 % 1010,8 hPa 0,0 l/m 0 min 0 min 0 W/m 0,0 km/h (0 Bft) 97,87 %
03.02.2019 03:18 -0,3 C -0,6 C -1,1 C 99 % 1010,8 hPa 0,0 l/m 0 min 0 min 0 W/m 0,0 km/h (0 Bft) 100,00 %
03.02.2019 03:20 -0,3 C -0,6 C -1,1 C 99 % 1010,8 hPa 0,0 l/m 0 min 0 min 0 W/m 3,2 km/h (1 Bft) 100,00 %
03.02.2019 03:22 -0,3 C -0,6 C -1,1 C 99 % 1010,9 hPa 0,0 l/m 0 min 0 min 0 W/m 3,2 km/h (1 Bft) 100,00 %
03.02.2019 03:24 -0,2 C -0,6 C -1,1 C 99 % 1010,9 hPa 0,0 l/m 0 min 0 min 0 W/m 6,4 km/h (2 Bft) 100,00 %
03.02.2019 03:26 -0,2 C -0,6 C -1,1 C 99 % 1010,9 hPa 0,0 l/m 0 min 0 min 0 W/m 3,2 km/h (1 Bft) 97,87 %
03.02.2019 03:28 -0,2 C -0,6 C -1,1 C 99 % 1010,9 hPa 0,0 l/m 0 min 0 min 0 W/m 3,2 km/h (1 Bft) 100,00 %
03.02.2019 03:30 -0,2 C -0,6 C -1,1 C 99 % 1011,0 hPa 0,0 l/m 0 min 0 min 0 W/m 3,2 km/h (1 Bft) 100,00 %
03.02.2019 03:32 -0,2 C -0,6 C -1,1 C 99 % 1011,0 hPa 0,0 l/m 0 min 0 min 0 W/m 3,2 km/h (1 Bft) 95,74 %
03.02.2019 03:34 -0,2 C -0,6 C -1,1 C 99 % 1011,0 hPa 0,0 l/m 0 min 0 min 0 W/m 6,4 km/h (2 Bft) 100,00 %
03.02.2019 03:36 -0,2 C -0,6 C -1,1 C 99 % 1011,0 hPa 0,0 l/m 0 min 0 min 0 W/m 0,0 km/h (0 Bft) 100,00 %
03.02.2019 03:38 -0,2 C -0,6 C -1,1 C 99 % 1011,0 hPa 0,0 l/m 0 min 0 min 0 W/m 0,0 km/h (0 Bft) 100,00 %
03.02.2019 03:40 -0,2 C -0,6 C -1,1 C 99 % 1011,0 hPa 0,0 l/m 0 min 0 min 0 W/m 0,0 km/h (0 Bft) 100,00 %
03.02.2019 03:42 -0,2 C -0,6 C -1,1 C 99 % 1011,0 hPa 0,0 l/m 0 min 0 min 0 W/m 6,4 km/h (2 Bft) 100,00 %
03.02.2019 03:44 -0,2 C -0,6 C -1,1 C 99 % 1011,0 hPa 0,0 l/m 0 min 0 min 0 W/m 3,2 km/h (1 Bft) 100,00 %
03.02.2019 03:46 -0,1 C -0,6 C -1,1 C 99 % 1011,0 hPa 0,0 l/m 0 min 0 min 0 W/m 0,0 km/h (0 Bft) 100,00 %
03.02.2019 03:48 -0,1 C -0,6 C -1,1 C 99 % 1011,0 hPa 0,0 l/m 0 min 0 min 0 W/m 6,4 km/h (2 Bft) 100,00 %
03.02.2019 03:50 -0,1 C -0,6 C -1,1 C 99 % 1011,0 hPa 0,0 l/m 0 min 0 min 0 W/m 0,0 km/h (0 Bft) 100,00 %
03.02.2019 03:52 -0,1 C -0,6 C -1,1 C 99 % 1011,0 hPa 0,0 l/m 0 min 0 min 0 W/m 3,2 km/h (1 Bft) 97,87 %
03.02.2019 03:54 -0,1 C -0,6 C -1,1 C 99 % 1011,0 hPa 0,0 l/m 0 min 0 min 0 W/m 3,2 km/h (1 Bft) 97,83 %
03.02.2019 03:56 -0,1 C -0,6 C -1,1 C 99 % 1011,0 hPa 0,0 l/m 0 min 0 min 0 W/m 3,2 km/h (1 Bft) 95,74 %
03.02.2019 03:58 -0,1 C -0,6 C -1,1 C 99 % 1011,1 hPa 0,0 l/m 0 min 0 min 0 W/m 3,2 km/h (1 Bft) 97,87 %
03.02.2019 04:00 -0,1 C -0,6 C -1,1 C 99 % 1011,1 hPa 0,0 l/m 0 min 0 min 0 W/m 3,2 km/h (1 Bft) 100,00 %
03.02.2019 04:05 -0,1 C -0,6 C -0,6 C 99 % 1011,1 hPa 0,0 l/m 0 min 0 min 0 W/m 3,2 km/h (1 Bft) 95,65 %
03.02.2019 04:06 -0,1 C -0,6 C -0,6 C 99 % 1011,2 hPa 0,0 l/m 0 min 0 min 0 W/m 0,0 km/h (0 Bft) 91,30 %
03.02.2019 04:08 -0,1 C -0,6 C -0,6 C 99 % 1011,2 hPa 0,0 l/m 0 min 0 min 0 W/m 9,7 km/h (2 Bft) 95,74 %
03.02.2019 04:10 -0,1 C -0,6 C -0,6 C 99 % 1011,2 hPa 0,0 l/m 0 min 0 min 0 W/m 6,4 km/h (2 Bft) 97,87 %
03.02.2019 04:12 0,0 C -0,6 C -0,6 C 99 % 1011,2 hPa 0,0 l/m 0 min 0 min 0 W/m 6,4 km/h (2 Bft) 95,74 %
03.02.2019 04:14 0,0 C -0,6 C -0,6 C 99 % 1011,2 hPa 0,0 l/m 0 min 0 min 0 W/m 0,0 km/h (0 Bft) 97,87 %
03.02.2019 04:16 0,0 C -0,6 C -0,6 C 99 % 1011,2 hPa 0,0 l/m 0 min 0 min 0 W/m 0,0 km/h (0 Bft) 97,87 %
03.02.2019 04:18 0,0 C -0,6 C -0,6 C 99 % 1011,3 hPa 0,0 l/m 0 min 0 min 0 W/m 3,2 km/h (1 Bft) 97,83 %
03.02.2019 04:20 0,0 C -0,6 C -0,6 C 99 % 1011,2 hPa 0,0 l/m 0 min 0 min 0 W/m 3,2 km/h (1 Bft) 97,87 %
03.02.2019 04:22 0,0 C -0,6 C -0,6 C 99 % 1011,2 hPa 0,0 l/m 0 min 0 min 0 W/m 6,4 km/h (2 Bft) 97,87 %
03.02.2019 04:24 0,0 C -0,6 C -0,6 C 99 % 1011,2 hPa 0,0 l/m 0 min 0 min 0 W/m 6,4 km/h (2 Bft) 97,87 %
03.02.2019 04:26 0,0 C -0,6 C -0,6 C 99 % 1011,2 hPa 0,0 l/m 0 min 0 min 0 W/m 9,7 km/h (2 Bft) 97,87 %
03.02.2019 04:28 0,0 C -0,6 C -0,6 C 99 % 1011,2 hPa 0,0 l/m 0 min 0 min 0 W/m 6,4 km/h (2 Bft) 95,74 %
03.02.2019 04:30 0,0 C -0,6 C -0,6 C 99 % 1011,2 hPa 0,0 l/m 0 min 0 min 0 W/m 3,2 km/h (1 Bft) 95,65 %
03.02.2019 04:32 0,0 C -0,6 C -0,6 C 99 % 1011,2 hPa 0,0 l/m 0 min 0 min 0 W/m 0,0 km/h (0 Bft) 95,74 %
03.02.2019 04:34 0,0 C -0,6 C -0,6 C 99 % 1011,1 hPa 0,0 l/m 0 min 0 min 0 W/m 6,4 km/h (2 Bft) 95,74 %
03.02.2019 04:36 0,0 C -0,6 C -0,6 C 99 % 1011,2 hPa 0,0 l/m 0 min 0 min 0 W/m 6,4 km/h (2 Bft) 95,74 %
03.02.2019 04:38 0,0 C -0,6 C -0,6 C 99 % 1011,1 hPa 0,0 l/m 0 min 0 min 0 W/m 6,4 km/h (2 Bft) 95,74 %
03.02.2019 04:40 0,1 C -0,6 C -0,6 C 99 % 1011,2 hPa 0,0 l/m 0 min 0 min 0 W/m 6,4 km/h (2 Bft) 91,30 %
03.02.2019 04:42 0,1 C -0,6 C -0,6 C 99 % 1011,1 hPa 0,0 l/m 0 min 0 min 0 W/m 6,4 km/h (2 Bft) 95,74 %
03.02.2019 04:44 0,1 C -0,6 C -0,6 C 99 % 1011,2 hPa 0,0 l/m 0 min 0 min 0 W/m 9,7 km/h (2 Bft) 93,62 %
03.02.2019 04:46 0,1 C -0,6 C -0,6 C 99 % 1011,3 hPa 0,0 l/m 0 min 0 min 0 W/m 12,9 km/h (3 Bft) 93,62 %
03.02.2019 04:48 0,1 C -0,6 C -0,6 C 99 % 1011,2 hPa 0,0 l/m 0 min 0 min 0 W/m 0,0 km/h (0 Bft) 93,62 %
03.02.2019 04:50 0,1 C -0,6 C -0,6 C 99 % 1011,2 hPa 0,0 l/m 0 min 0 min 0 W/m 0,0 km/h (0 Bft) 93,62 %
03.02.2019 04:52 0,1 C -0,6 C -0,6 C 99 % 1011,3 hPa 0,0 l/m 0 min 0 min 0 W/m 16,1 km/h (3 Bft) 93,48 %
03.02.2019 04:54 0,1 C -0,6 C -0,6 C 99 % 1011,2 hPa 0,0 l/m 0 min 0 min 0 W/m 9,7 km/h (2 Bft) 93,62 %
03.02.2019 04:56 0,1 C -0,6 C -0,6 C 99 % 1011,3 hPa 0,0 l/m 0 min 0 min 0 W/m 6,4 km/h (2 Bft) 93,62 %
03.02.2019 04:58 0,1 C -0,6 C -0,6 C 99 % 1011,3 hPa 0,0 l/m 0 min 0 min 0 W/m 3,2 km/h (1 Bft) 91,49 %
03.02.2019 05:00 0,1 C -0,6 C -0,6 C 99 % 1011,5 hPa 0,0 l/m 0 min 0 min 0 W/m 9,7 km/h (2 Bft) 95,74 %
03.02.2019 05:02 0,2 C -0,6 C -0,6 C 99 % 1011,4 hPa 0,0 l/m 0 min 0 min 0 W/m 12,9 km/h (3 Bft) 95,74 %
03.02.2019 05:04 0,2 C -0,6 C -0,6 C 99 % 1011,4 hPa 0,0 l/m 0 min 0 min 0 W/m 6,4 km/h (2 Bft) 95,65 %
03.02.2019 05:05 0,2 C -0,6 C -0,6 C 99 % 1011,5 hPa 0,0 l/m 0 min 0 min 0 W/m 12,9 km/h (3 Bft) 96,49 %
03.02.2019 05:10 0,2 C 0,0 C -0,6 C 99 % 1011,6 hPa 0,0 l/m 0 min 0 min 0 W/m 12,9 km/h (3 Bft) 100,00 %
03.02.2019 05:12 0,2 C 0,0 C -0,6 C 99 % 1011,7 hPa 0,0 l/m 0 min 0 min 0 W/m 3,2 km/h (1 Bft) 100,00 %
03.02.2019 05:14 0,2 C 0,0 C -0,6 C 99 % 1011,6 hPa 0,0 l/m 0 min 0 min 0 W/m 9,7 km/h (2 Bft) 93,62 %
03.02.2019 05:16 0,2 C 0,0 C -0,6 C 99 % 1011,5 hPa 0,0 l/m 0 min 0 min 0 W/m 6,4 km/h (2 Bft) 95,65 %
03.02.2019 05:18 0,2 C 0,0 C -0,6 C 99 % 1011,6 hPa 0,0 l/m 0 min 0 min 0 W/m 3,2 km/h (1 Bft) 97,87 %
03.02.2019 05:20 0,2 C 0,0 C -0,6 C 99 % 1011,5 hPa 0,0 l/m 0 min 0 min 0 W/m 6,4 km/h (2 Bft) 95,74 %
03.02.2019 05:22 0,2 C 0,0 C -0,6 C 99 % 1011,5 hPa 0,0 l/m 0 min 0 min 0 W/m 3,2 km/h (1 Bft) 97,87 %
03.02.2019 05:24 0,2 C 0,0 C -0,6 C 99 % 1011,6 hPa 0,0 l/m 0 min 0 min 0 W/m 9,7 km/h (2 Bft) 93,62 %
03.02.2019 05:26 0,2 C -0,6 C -0,6 C 99 % 1011,7 hPa 0,0 l/m 0 min 0 min 0 W/m 6,4 km/h (2 Bft) 97,87 %
03.02.2019 05:28 0,2 C -0,6 C -0,6 C 99 % 1011,7 hPa 0,0 l/m 0 min 0 min 0 W/m 12,9 km/h (3 Bft) 97,83 %
03.02.2019 05:30 0,2 C -0,6 C -0,6 C 99 % 1011,8 hPa 0,0 l/m 0 min 0 min 0 W/m 12,9 km/h (3 Bft) 97,87 %
03.02.2019 05:32 0,2 C -0,6 C -1,1 C 99 % 1011,8 hPa 0,0 l/m 0 min 0 min 0 W/m 9,7 km/h (2 Bft) 97,87 %
03.02.2019 05:34 0,2 C -0,6 C -1,1 C 99 % 1011,8 hPa 0,0 l/m 0 min 0 min 0 W/m 9,7 km/h (2 Bft) 95,74 %
03.02.2019 05:36 0,2 C -0,6 C -1,1 C 99 % 1012,0 hPa 0,0 l/m 0 min 0 min 0 W/m 6,4 km/h (2 Bft) 97,87 %
03.02.2019 05:38 0,2 C -0,6 C -1,1 C 99 % 1012,0 hPa 0,0 l/m 0 min 0 min 0 W/m 6,4 km/h (2 Bft) 97,87 %
03.02.2019 05:40 0,2 C -0,6 C -1,1 C 99 % 1012,2 hPa 0,0 l/m 0 min 0 min 0 W/m 9,7 km/h (2 Bft) 97,87 %
03.02.2019 05:42 0,1 C -0,6 C -1,1 C 99 % 1012,3 hPa 0,0 l/m 0 min 0 min 0 W/m 9,7 km/h (2 Bft) 100,00 %
03.02.2019 05:44 0,1 C -1,1 C -1,1 C 99 % 1012,3 hPa 0,0 l/m 0 min 0 min 0 W/m 9,7 km/h (2 Bft) 97,87 %
03.02.2019 05:46 0,1 C -0,6 C -1,1 C 99 % 1012,5 hPa 0,0 l/m 0 min 0 min 0 W/m 6,4 km/h (2 Bft) 100,00 %
03.02.2019 05:48 0,1 C -1,1 C -1,1 C 99 % 1012,5 hPa 0,0 l/m 0 min 0 min 0 W/m 0,0 km/h (0 Bft) 100,00 %
03.02.2019 05:50 0,1 C -1,1 C -1,1 C 99 % 1012,7 hPa 0,0 l/m 0 min 0 min 0 W/m 9,7 km/h (2 Bft) 95,74 %
03.02.2019 05:52 0,1 C -1,1 C -1,1 C 99 % 1012,8 hPa 0,0 l/m 0 min 0 min 0 W/m 6,4 km/h (2 Bft) 100,00 %
03.02.2019 05:54 0,0 C -1,1 C -1,1 C 99 % 1012,8 hPa 0,0 l/m 0 min 0 min 0 W/m 3,2 km/h (1 Bft) 100,00 %
03.02.2019 05:56 0,0 C -1,1 C -1,1 C 99 % 1012,9 hPa 0,0 l/m 0 min 0 min 0 W/m 0,0 km/h (0 Bft) 100,00 %
03.02.2019 05:58 -0,1 C -1,1 C -1,7 C 99 % 1012,9 hPa 0,0 l/m 0 min 0 min 0 W/m 0,0 km/h (0 Bft) 100,00 %
03.02.2019 06:00 -0,1 C -1,1 C -1,1 C 99 % 1013,0 hPa 0,0 l/m 0 min 0 min 0 W/m 0,0 km/h (0 Bft) 95,74 %
03.02.2019 06:02 -0,1 C -1,1 C -1,7 C 99 % 1013,1 hPa 0,0 l/m 0 min 0 min 0 W/m 0,0 km/h (0 Bft) 100,00 %
03.02.2019 06:04 -0,1 C -1,1 C -1,7 C 99 % 1013,1 hPa 0,0 l/m 0 min 0 min 0 W/m 0,0 km/h (0 Bft) 100,00 %
03.02.2019 06:08 -0,1 C -1,1 C -1,7 C 99 % 1013,2 hPa 0,0 l/m 0 min 0 min 0 W/m 0,0 km/h (0 Bft) 98,94 %
03.02.2019 06:10 -0,1 C -1,1 C -1,7 C 99 % 1013,3 hPa 0,0 l/m 0 min 0 min 0 W/m 0,0 km/h (0 Bft) 100,00 %
03.02.2019 06:12 -0,1 C -1,1 C -1,7 C 99 % 1013,3 hPa 0,0 l/m 0 min 0 min 0 W/m 0,0 km/h (0 Bft) 100,00 %
03.02.2019 06:14 -0,1 C -1,1 C -1,7 C 99 % 1013,3 hPa 0,0 l/m 0 min 0 min 0 W/m 0,0 km/h (0 Bft) 100,00 %
03.02.2019 06:16 -0,2 C -1,1 C -1,7 C 99 % 1013,3 hPa 0,0 l/m 0 min 0 min 0 W/m 0,0 km/h (0 Bft) 100,00 %
03.02.2019 06:18 -0,2 C -1,1 C -2,2 C 99 % 1013,3 hPa 0,0 l/m 0 min 0 min 0 W/m 0,0 km/h (0 Bft) 100,00 %
03.02.2019 06:20 -0,2 C -1,1 C -2,2 C 99 % 1013,3 hPa 0,0 l/m 0 min 0 min 0 W/m 0,0 km/h (0 Bft) 100,00 %
03.02.2019 06:22 -0,2 C -1,1 C -1,7 C 99 % 1013,3 hPa 0,0 l/m 0 min 0 min 0 W/m 0,0 km/h (0 Bft) 100,00 %
03.02.2019 06:24 -0,2 C -1,1 C -2,2 C 99 % 1013,3 hPa 0,0 l/m 0 min 0 min 0 W/m 0,0 km/h (0 Bft) 97,87 %
03.02.2019 06:26 -0,3 C -1,1 C -2,2 C 99 % 1013,4 hPa 0,0 l/m 0 min 0 min 0 W/m 0,0 km/h (0 Bft) 95,74 %
03.02.2019 06:28 -0,3 C -1,1 C -2,2 C 99 % 1013,4 hPa 0,0 l/m 0 min 0 min 0 W/m 0,0 km/h (0 Bft) 100,00 %
03.02.2019 06:30 -0,3 C -1,1 C -2,2 C 99 % 1013,4 hPa 0,0 l/m 0 min 0 min 0 W/m 0,0 km/h (0 Bft) 100,00 %
03.02.2019 06:32 -0,3 C -1,7 C -2,2 C 99 % 1013,5 hPa 0,0 l/m 0 min 0 min 0 W/m 0,0 km/h (0 Bft) 100,00 %
03.02.2019 06:34 -0,3 C -1,7 C -2,2 C 99 % 1013,6 hPa 0,0 l/m 0 min 0 min 0 W/m 0,0 km/h (0 Bft) 100,00 %
03.02.2019 06:36 -0,3 C -1,7 C -2,2 C 99 % 1013,7 hPa 0,0 l/m 0 min 0 min 0 W/m 0,0 km/h (0 Bft) 100,00 %
03.02.2019 06:38 -0,4 C -1,7 C -2,2 C 99 % 1013,7 hPa 0,0 l/m 0 min 0 min 0 W/m 0,0 km/h (0 Bft) 97,83 %
03.02.2019 06:40 -0,4 C -1,7 C -2,2 C 99 % 1013,7 hPa 0,0 l/m 0 min 0 min 0 W/m 0,0 km/h (0 Bft) 97,87 %
03.02.2019 06:42 -0,4 C -1,7 C -2,2 C 99 % 1013,8 hPa 0,0 l/m 0 min 0 min 0 W/m 0,0 km/h (0 Bft) 95,74 %
03.02.2019 06:44 -0,4 C -1,7 C -2,2 C 99 % 1013,9 hPa 0,0 l/m 0 min 0 min 0 W/m 0,0 km/h (0 Bft) 97,87 %
03.02.2019 06:46 -0,4 C -1,7 C -2,2 C 99 % 1013,9 hPa 0,0 l/m 0 min 0 min 0 W/m 0,0 km/h (0 Bft) 100,00 %
03.02.2019 06:48 -0,5 C -1,1 C -2,2 C 99 % 1013,9 hPa 0,0 l/m 0 min 0 min 0 W/m 0,0 km/h (0 Bft) 97,87 %
03.02.2019 06:50 -0,5 C -1,1 C -2,2 C 99 % 1014,1 hPa 0,0 l/m 0 min 0 min 0 W/m 0,0 km/h (0 Bft) 97,87 %
03.02.2019 06:52 -0,6 C -1,7 C -2,2 C 98 % 1014,2 hPa 0,0 l/m 0 min 0 min 0 W/m 0,0 km/h (0 Bft) 95,65 %
03.02.2019 06:54 -0,6 C -1,7 C -2,2 C 98 % 1014,2 hPa 0,0 l/m 0 min 0 min 0 W/m 0,0 km/h (0 Bft) 100,00 %
03.02.2019 06:56 -0,6 C -1,1 C -1,7 C 98 % 1014,2 hPa 0,0 l/m 0 min 0 min 0 W/m 0,0 km/h (0 Bft) 97,87 %
03.02.2019 06:58 -0,6 C -1,1 C -1,7 C 98 % 1014,2 hPa 0,0 l/m 0 min 0 min 0 W/m 0,0 km/h (0 Bft) 97,87 %
03.02.2019 07:00 -0,6 C -1,1 C -1,7 C 98 % 1014,3 hPa 0,0 l/m 0 min 0 min 0 W/m 0,0 km/h (0 Bft) 97,87 %
03.02.2019 07:02 -0,6 C -1,1 C -1,7 C 98 % 1014,4 hPa 0,0 l/m 0 min 0 min 0 W/m 0,0 km/h (0 Bft) 95,74 %
03.02.2019 07:04 -0,6 C -1,1 C -1,7 C 98 % 1014,5 hPa 0,0 l/m 0 min 0 min 0 W/m 0,0 km/h (0 Bft) 95,74 %
03.02.2019 07:06 -0,6 C -1,1 C -1,7 C 98 % 1014,5 hPa 0,0 l/m 0 min 0 min 0 W/m 0,0 km/h (0 Bft) 95,74 %
03.02.2019 07:08 -0,6 C -1,1 C -1,1 C 98 % 1014,5 hPa 0,0 l/m 0 min 0 min 0 W/m 0,0 km/h (0 Bft) 94,74 %
03.02.2019 07:10 -0,6 C -1,1 C -1,1 C 98 % 1014,4 hPa 0,0 l/m 0 min 0 min 0 W/m 0,0 km/h (0 Bft) 95,74 %
03.02.2019 07:12 -0,6 C -1,1 C -1,7 C 98 % 1014,4 hPa 0,0 l/m 0 min 0 min 0 W/m 0,0 km/h (0 Bft) 95,74 %
03.02.2019 07:14 -0,6 C -1,1 C -1,7 C 98 % 1014,4 hPa 0,0 l/m 0 min 0 min 0 W/m 0,0 km/h (0 Bft) 95,74 %
03.02.2019 07:16 -0,6 C -1,1 C -1,7 C 98 % 1014,4 hPa 0,0 l/m 0 min 0 min 0 W/m 0,0 km/h (0 Bft) 93,48 %
03.02.2019 07:18 -0,6 C -1,1 C -1,7 C 98 % 1014,4 hPa 0,0 l/m 0 min 0 min 0 W/m 0,0 km/h (0 Bft) 95,74 %
03.02.2019 07:20 -0,6 C -1,1 C -1,7 C 98 % 1014,4 hPa 0,0 l/m 0 min 0 min 0 W/m 3,2 km/h (1 Bft) 95,74 %
03.02.2019 07:22 -0,6 C -1,1 C -1,7 C 98 % 1014,4 hPa 0,0 l/m 0 min 0 min 0 W/m 3,2 km/h (1 Bft) 93,62 %
03.02.2019 07:24 -0,6 C -1,1 C -1,7 C 98 % 1014,4 hPa 0,0 l/m 0 min 0 min 0 W/m 3,2 km/h (1 Bft) 93,62 %
03.02.2019 07:26 -0,6 C -1,1 C -1,7 C 98 % 1014,4 hPa 0,0 l/m 0 min 0 min 0 W/m 6,4 km/h (2 Bft) 95,74 %
03.02.2019 07:28 -0,6 C -1,1 C -1,7 C 98 % 1014,5 hPa 0,0 l/m 0 min 0 min 0 W/m 0,0 km/h (0 Bft) 93,48 %
03.02.2019 07:30 -0,6 C -1,1 C -1,7 C 98 % 1014,5 hPa 0,0 l/m 0 min 0 min 0 W/m 0,0 km/h (0 Bft) 95,74 %
03.02.2019 07:32 -0,6 C -1,1 C -1,7 C 98 % 1014,5 hPa 0,0 l/m 0 min 0 min 0 W/m 0,0 km/h (0 Bft) 95,74 %
03.02.2019 07:34 -0,6 C -1,1 C -1,7 C 98 % 1014,5 hPa 0,0 l/m 0 min 0 min 0 W/m 0,0 km/h (0 Bft) 93,62 %
03.02.2019 07:36 -0,6 C -1,1 C -1,7 C 98 % 1014,5 hPa 0,0 l/m 0 min 0 min 0 W/m 3,2 km/h (1 Bft) 96,55 %
03.02.2019 07:38 -0,6 C -1,1 C -1,7 C 98 % 1014,5 hPa 0,0 l/m 0 min 0 min 0 W/m 6,4 km/h (2 Bft) 97,22 %
03.02.2019 07:40 -0,6 C -1,1 C -1,7 C 98 % 1014,5 hPa 0,0 l/m 0 min 0 min 0 W/m 3,2 km/h (1 Bft) 97,83 %
03.02.2019 07:42 -0,6 C -1,7 C -1,7 C 98 % 1014,5 hPa 0,0 l/m 0 min 0 min 0 W/m 3,2 km/h (1 Bft) 95,74 %
03.02.2019 07:44 -0,6 C -1,7 C -1,7 C 98 % 1014,5 hPa 0,0 l/m 0 min 0 min 0 W/m 3,2 km/h (1 Bft) 97,87 %
03.02.2019 07:46 -0,6 C -1,7 C -1,7 C 98 % 1014,6 hPa 0,0 l/m 0 min 0 min 0 W/m 3,2 km/h (1 Bft) 95,74 %
03.02.2019 07:48 -0,6 C -1,7 C -1,7 C 98 % 1014,6 hPa 0,0 l/m 0 min 0 min 0 W/m 3,2 km/h (1 Bft) 97,87 %
03.02.2019 07:50 -0,6 C -1,7 C -1,7 C 98 % 1014,7 hPa 0,0 l/m 0 min 0 min 0 W/m 0,0 km/h (0 Bft) 100,00 %
03.02.2019 07:52 -0,6 C -1,7 C -1,7 C 98 % 1014,7 hPa 0,0 l/m 0 min 0 min 0 W/m 6,4 km/h (2 Bft) 100,00 %
03.02.2019 07:54 -0,6 C -1,7 C -1,7 C 98 % 1014,6 hPa 0,0 l/m 0 min 0 min 0 W/m 6,4 km/h (2 Bft) 100,00 %
03.02.2019 07:56 -0,6 C -1,7 C -1,7 C 98 % 1014,7 hPa 0,0 l/m 0 min 0 min 0 W/m 9,7 km/h (2 Bft) 97,87 %
03.02.2019 07:58 -0,6 C -1,7 C -1,7 C 99 % 1014,7 hPa 0,0 l/m 0 min 0 min 0 W/m 3,2 km/h (1 Bft) 100,00 %
03.02.2019 08:00 -0,6 C -1,7 C -1,7 C 99 % 1014,7 hPa 0,0 l/m 0 min 0 min 0 W/m 3,2 km/h (1 Bft) 100,00 %
03.02.2019 08:02 -0,6 C -1,7 C -1,7 C 99 % 1014,7 hPa 0,0 l/m 0 min 0 min 0 W/m 3,2 km/h (1 Bft) 97,83 %
03.02.2019 08:04 -0,6 C -1,7 C -1,7 C 99 % 1014,7 hPa 0,0 l/m 0 min 0 min 0 W/m 3,2 km/h (1 Bft) 100,00 %
03.02.2019 08:06 -0,6 C -1,7 C -1,7 C 99 % 1014,8 hPa 0,0 l/m 0 min 0 min 0 W/m 6,4 km/h (2 Bft) 100,00 %
03.02.2019 08:08 -0,6 C -1,7 C -1,7 C 99 % 1014,7 hPa 0,0 l/m 0 min 0 min 0 W/m 3,2 km/h (1 Bft) 100,00 %
03.02.2019 08:10 -0,6 C -1,7 C -1,7 C 99 % 1014,8 hPa 0,0 l/m 0 min 0 min 0 W/m 6,4 km/h (2 Bft) 97,87 %
03.02.2019 08:12 -0,6 C -1,7 C -1,7 C 99 % 1014,9 hPa 0,0 l/m 0 min 0 min 0 W/m 6,4 km/h (2 Bft) 97,87 %
03.02.2019 08:14 -0,6 C -1,7 C -1,7 C 99 % 1014,9 hPa 0,0 l/m 0 min 0 min 0 W/m 6,4 km/h (2 Bft) 97,83 %
03.02.2019 08:16 -0,6 C -1,7 C -1,7 C 99 % 1014,9 hPa 0,0 l/m 0 min 0 min 1 W/m 9,7 km/h (2 Bft) 97,87 %
03.02.2019 08:18 -0,6 C -1,7 C -1,7 C 99 % 1015,0 hPa 0,0 l/m 0 min 0 min 5 W/m 6,4 km/h (2 Bft) 97,87 %
03.02.2019 08:20 -0,6 C -1,7 C -1,7 C 99 % 1015,0 hPa 0,0 l/m 0 min 0 min 5 W/m 9,7 km/h (2 Bft) 100,00 %
03.02.2019 08:22 -0,6 C -1,1 C -1,7 C 99 % 1015,0 hPa 0,0 l/m 0 min 0 min 5 W/m 3,2 km/h (1 Bft) 100,00 %
03.02.2019 08:24 -0,6 C -1,1 C -1,7 C 99 % 1014,9 hPa 0,0 l/m 0 min 0 min 6 W/m 3,2 km/h (1 Bft) 94,29 %
03.02.2019 08:26 -0,6 C -1,1 C -1,7 C 99 % 1015,0 hPa 0,0 l/m 0 min 0 min 7 W/m 6,4 km/h (2 Bft) 100,00 %
03.02.2019 08:28 -0,6 C -1,1 C -1,7 C 99 % 1014,9 hPa 0,0 l/m 0 min 0 min 7 W/m 6,4 km/h (2 Bft) 97,87 %
03.02.2019 08:30 -0,6 C -1,1 C -1,7 C 99 % 1014,9 hPa 0,0 l/m 0 min 0 min 7 W/m 9,7 km/h (2 Bft) 100,00 %
03.02.2019 08:32 -0,6 C -1,1 C -1,7 C 99 % 1015,0 hPa 0,0 l/m 0 min 0 min 9 W/m 9,7 km/h (2 Bft) 95,74 %
03.02.2019 08:34 -0,6 C -1,1 C -1,7 C 99 % 1015,0 hPa 0,0 l/m 0 min 0 min 10 W/m 6,4 km/h (2 Bft) 95,74 %
03.02.2019 08:36 -0,6 C -1,1 C -1,7 C 99 % 1015,0 hPa 0,0 l/m 0 min 0 min 11 W/m 6,4 km/h (2 Bft) 97,83 %
03.02.2019 08:38 -0,6 C -1,1 C -1,7 C 99 % 1015,1 hPa 0,0 l/m 0 min 0 min 12 W/m 6,4 km/h (2 Bft) 100,00 %
03.02.2019 08:40 -0,6 C -1,1 C -1,7 C 99 % 1015,0 hPa 0,0 l/m 0 min 0 min 13 W/m 6,4 km/h (2 Bft) 97,92 %
03.02.2019 08:42 -0,6 C -1,1 C -1,7 C 99 % 1015,0 hPa 0,0 l/m 0 min 0 min 16 W/m 6,4 km/h (2 Bft) 93,48 %
03.02.2019 08:44 -0,6 C -1,1 C -1,7 C 99 % 1015,1 hPa 0,0 l/m 0 min 0 min 18 W/m 9,7 km/h (2 Bft) 93,62 %
03.02.2019 08:46 -0,5 C -1,1 C -1,7 C 99 % 1015,2 hPa 0,0 l/m 0 min 0 min 19 W/m 9,7 km/h (2 Bft) 97,87 %
03.02.2019 08:48 -0,5 C -1,1 C -1,7 C 99 % 1015,3 hPa 0,0 l/m 0 min 2 min 19 W/m 6,4 km/h (2 Bft) 97,87 %
03.02.2019 08:50 -0,5 C -1,1 C -1,7 C 99 % 1015,2 hPa 0,0 l/m 0 min 0 min 21 W/m 9,7 km/h (2 Bft) 95,74 %
03.02.2019 08:52 -0,5 C -1,1 C -1,7 C 99 % 1015,2 hPa 0,0 l/m 0 min 0 min 24 W/m 12,9 km/h (3 Bft) 97,83 %
03.02.2019 08:54 -0,5 C -1,1 C -1,7 C 99 % 1015,2 hPa 0,0 l/m 0 min 0 min 25 W/m 6,4 km/h (2 Bft) 97,87 %
03.02.2019 08:56 -0,4 C -1,1 C -1,7 C 99 % 1015,2 hPa 0,0 l/m 0 min 0 min 26 W/m 0,0 km/h (0 Bft) 97,87 %
03.02.2019 08:58 -0,4 C -1,1 C -1,7 C 99 % 1015,3 hPa 0,0 l/m 0 min 0 min 28 W/m 9,7 km/h (2 Bft) 95,74 %
03.02.2019 09:00 -0,4 C -1,1 C -1,7 C 99 % 1015,3 hPa 0,0 l/m 0 min 0 min 30 W/m 16,1 km/h (3 Bft) 97,87 %
03.02.2019 09:02 -0,4 C -0,6 C -1,1 C 99 % 1015,4 hPa 0,0 l/m 0 min 0 min 30 W/m 16,1 km/h (3 Bft) 93,62 %
03.02.2019 09:04 -0,4 C -0,6 C -1,1 C 99 % 1015,4 hPa 0,0 l/m 0 min 0 min 31 W/m 12,9 km/h (3 Bft) 97,87 %
03.02.2019 09:06 -0,4 C -0,6 C -1,1 C 99 % 1015,5 hPa 0,0 l/m 0 min 0 min 33 W/m 12,9 km/h (3 Bft) 95,65 %
03.02.2019 09:08 -0,3 C -0,6 C -1,1 C 99 % 1015,4 hPa 0,0 l/m 0 min 0 min 35 W/m 12,9 km/h (3 Bft) 93,62 %
03.02.2019 09:10 -0,3 C -0,6 C -1,1 C 99 % 1015,4 hPa 0,0 l/m 0 min 0 min 34 W/m 3,2 km/h (1 Bft) 93,62 %
03.02.2019 09:12 -0,3 C -0,6 C -1,1 C 99 % 1015,4 hPa 0,0 l/m 0 min 0 min 34 W/m 6,4 km/h (2 Bft) 97,87 %
03.02.2019 09:14 -0,3 C -0,6 C -1,1 C 99 % 1015,4 hPa 0,0 l/m 0 min 0 min 38 W/m 9,7 km/h (2 Bft) 95,74 %
03.02.2019 09:16 -0,3 C -0,6 C -1,1 C 99 % 1015,6 hPa 0,0 l/m 0 min 0 min 39 W/m 0,0 km/h (0 Bft) 95,65 %
03.02.2019 09:18 -0,3 C -0,6 C -1,1 C 99 % 1015,7 hPa 0,0 l/m 0 min 0 min 39 W/m 6,4 km/h (2 Bft) 97,87 %
03.02.2019 09:20 -0,3 C -0,6 C -1,1 C 99 % 1015,7 hPa 0,0 l/m 0 min 0 min 40 W/m 3,2 km/h (1 Bft) 97,87 %
03.02.2019 09:22 -0,3 C -0,6 C -1,1 C 99 % 1015,7 hPa 0,0 l/m 0 min 0 min 42 W/m 3,2 km/h (1 Bft) 97,87 %
03.02.2019 09:24 -0,2 C -0,6 C -1,1 C 99 % 1015,7 hPa 0,0 l/m 0 min 0 min 42 W/m 12,9 km/h (3 Bft) 97,87 %
03.02.2019 09:26 -0,2 C -0,6 C -1,1 C 99 % 1015,8 hPa 0,0 l/m 0 min 0 min 44 W/m 12,9 km/h (3 Bft) 97,87 %
03.02.2019 09:28 -0,2 C -0,6 C -1,1 C 99 % 1015,8 hPa 0,0 l/m 0 min 0 min 48 W/m 6,4 km/h (2 Bft) 97,83 %
03.02.2019 09:30 -0,2 C 0,6 C -1,1 C 99 % 1015,8 hPa 0,0 l/m 2 min 0 min 104 W/m 6,4 km/h (2 Bft) 97,87 %
03.02.2019 09:32 -0,2 C 1,7 C -1,1 C 99 % 1015,9 hPa 0,0 l/m 2 min 0 min 132 W/m 6,4 km/h (2 Bft) 97,87 %
03.02.2019 09:34 -0,2 C 1,7 C -1,1 C 99 % 1015,9 hPa 0,0 l/m 2 min 0 min 139 W/m 3,2 km/h (1 Bft) 95,74 %
03.02.2019 09:36 -0,1 C 2,2 C -1,1 C 99 % 1016,0 hPa 0,0 l/m 2 min 0 min 148 W/m 9,7 km/h (2 Bft) 97,87 %
03.02.2019 09:38 -0,1 C 2,8 C -1,1 C 99 % 1016,1 hPa 0,0 l/m 2 min 0 min 169 W/m 6,4 km/h (2 Bft) 93,48 %
03.02.2019 09:40 0,0 C 3,3 C -0,6 C 99 % 1016,1 hPa 0,0 l/m 2 min 0 min 181 W/m 6,4 km/h (2 Bft) 92,73 %
03.02.2019 09:42 0,1 C 3,9 C -0,6 C 99 % 1016,1 hPa 0,0 l/m 2 min 0 min 178 W/m 9,7 km/h (2 Bft) 95,74 %
03.02.2019 09:44 0,2 C 3,9 C -0,6 C 99 % 1016,1 hPa 0,0 l/m 2 min 0 min 171 W/m 6,4 km/h (2 Bft) 93,62 %
03.02.2019 09:46 0,2 C 3,9 C -0,6 C 99 % 1016,1 hPa 0,0 l/m 2 min 0 min 173 W/m 6,4 km/h (2 Bft) 95,74 %
03.02.2019 09:48 0,3 C 3,3 C -0,6 C 99 % 1016,1 hPa 0,0 l/m 2 min 0 min 156 W/m 16,1 km/h (3 Bft) 93,48 %
03.02.2019 09:50 0,4 C 2,2 C -0,6 C 99 % 1016,1 hPa 0,0 l/m 0 min 0 min 97 W/m 12,9 km/h (3 Bft) 95,74 %
03.02.2019 09:52 0,4 C 1,7 C -0,6 C 99 % 1016,1 hPa 0,0 l/m 0 min 0 min 49 W/m 9,7 km/h (2 Bft) 95,74 %
03.02.2019 09:54 0,4 C 1,1 C -1,1 C 99 % 1016,2 hPa 0,0 l/m 0 min 0 min 39 W/m 12,9 km/h (3 Bft) 95,74 %
03.02.2019 09:56 0,4 C 0,6 C -1,1 C 99 % 1016,2 hPa 0,0 l/m 0 min 0 min 35 W/m 6,4 km/h (2 Bft) 95,74 %
03.02.2019 09:58 0,4 C 0,6 C -1,1 C 99 % 1016,2 hPa 0,0 l/m 0 min 0 min 33 W/m 12,9 km/h (3 Bft) 95,65 %
03.02.2019 10:00 0,4 C 0,6 C -1,1 C 99 % 1016,2 hPa 0,0 l/m 0 min 0 min 39 W/m 12,9 km/h (3 Bft) 95,74 %
03.02.2019 10:02 0,4 C 1,1 C -1,1 C 99 % 1016,3 hPa 0,0 l/m 0 min 0 min 49 W/m 12,9 km/h (3 Bft) 93,75 %
03.02.2019 10:04 0,4 C 3,3 C -0,6 C 99 % 1016,3 hPa 0,0 l/m 2 min 0 min 168 W/m 6,4 km/h (2 Bft) 93,62 %
03.02.2019 10:06 0,5 C 4,4 C -0,6 C 99 % 1016,3 hPa 0,0 l/m 2 min 0 min 194 W/m 9,7 km/h (2 Bft) 93,62 %
03.02.2019 10:08 0,5 C 4,4 C -0,6 C 99 % 1016,3 hPa 0,0 l/m 2 min 0 min 200 W/m 6,4 km/h (2 Bft) 95,74 %
03.02.2019 10:10 0,5 C 5,0 C -0,6 C 99 % 1016,3 hPa 0,0 l/m 2 min 0 min 207 W/m 9,7 km/h (2 Bft) 94,74 %
03.02.2019 10:12 0,6 C 5,6 C -0,6 C 99 % 1016,4 hPa 0,0 l/m 2 min 0 min 209 W/m 16,1 km/h (3 Bft) 95,65 %
03.02.2019 10:14 0,7 C 5,6 C -0,6 C 99 % 1016,5 hPa 0,0 l/m 2 min 0 min 213 W/m 16,1 km/h (3 Bft) 97,87 %
03.02.2019 10:16 0,7 C 6,1 C 0,0 C 99 % 1016,5 hPa 0,0 l/m 2 min 0 min 219 W/m 9,7 km/h (2 Bft) 97,87 %
03.02.2019 10:18 0,8 C 6,7 C 0,0 C 99 % 1016,5 hPa 0,0 l/m 2 min 0 min 225 W/m 9,7 km/h (2 Bft) 95,74 %
03.02.2019 10:20 0,9 C 6,1 C 0,0 C 99 % 1016,6 hPa 0,0 l/m 2 min 0 min 227 W/m 9,7 km/h (2 Bft) 97,87 %
03.02.2019 10:22 1,0 C 6,7 C 0,0 C 99 % 1016,5 hPa 0,0 l/m 2 min 0 min 237 W/m 16,1 km/h (3 Bft) 97,87 %
03.02.2019 10:24 1,1 C 6,7 C 0,0 C 99 % 1016,6 hPa 0,0 l/m 2 min 0 min 243 W/m 16,1 km/h (3 Bft) 97,83 %
03.02.2019 10:26 1,2 C 6,7 C 0,0 C 99 % 1016,6 hPa 0,0 l/m 2 min 0 min 245 W/m 12,9 km/h (3 Bft) 97,87 %
03.02.2019 10:28 1,2 C 6,7 C 0,0 C 99 % 1016,6 hPa 0,0 l/m 2 min 0 min 250 W/m 19,3 km/h (3 Bft) 97,87 %
03.02.2019 10:30 1,3 C 6,7 C 0,0 C 99 % 1016,6 hPa 0,0 l/m 2 min 0 min 254 W/m 16,1 km/h (3 Bft) 95,74 %
03.02.2019 10:32 1,4 C 6,7 C 0,6 C 99 % 1016,7 hPa 0,0 l/m 2 min 0 min 257 W/m 12,9 km/h (3 Bft) 97,87 %
03.02.2019 10:34 1,4 C 7,2 C 0,6 C 99 % 1016,7 hPa 0,0 l/m 2 min 0 min 265 W/m 12,9 km/h (3 Bft) 97,87 %
03.02.2019 10:36 1,5 C 7,8 C 0,6 C 99 % 1016,7 hPa 0,0 l/m 2 min 0 min 270 W/m 9,7 km/h (2 Bft) 93,48 %
03.02.2019 10:38 1,6 C 7,8 C 0,6 C 99 % 1016,7 hPa 0,0 l/m 2 min 0 min 273 W/m 16,1 km/h (3 Bft) 97,96 %
03.02.2019 10:40 1,7 C 7,8 C 0,6 C 99 % 1016,7 hPa 0,0 l/m 2 min 0 min 275 W/m 3,2 km/h (1 Bft) 97,92 %
03.02.2019 10:42 1,7 C 8,3 C 0,6 C 99 % 1016,8 hPa 0,0 l/m 2 min 0 min 278 W/m 6,4 km/h (2 Bft) 97,87 %
03.02.2019 10:44 1,8 C 8,3 C 0,6 C 99 % 1016,8 hPa 0,0 l/m 2 min 0 min 282 W/m 3,2 km/h (1 Bft) 97,87 %
03.02.2019 10:46 1,9 C 7,8 C 0,6 C 99 % 1016,9 hPa 0,0 l/m 2 min 0 min 287 W/m 22,5 km/h (4 Bft) 97,87 %
03.02.2019 10:48 1,9 C 7,8 C 0,6 C 99 % 1016,9 hPa 0,0 l/m 2 min 0 min 290 W/m 3,2 km/h (1 Bft) 93,48 %
03.02.2019 10:50 2,0 C 8,3 C 0,6 C 99 % 1016,9 hPa 0,0 l/m 2 min 0 min 294 W/m 9,7 km/h (2 Bft) 97,87 %
03.02.2019 10:52 2,1 C 7,8 C 0,6 C 99 % 1016,9 hPa 0,0 l/m 2 min 0 min 298 W/m 19,3 km/h (3 Bft) 97,87 %
03.02.2019 10:54 2,1 C 8,3 C 0,6 C 99 % 1016,9 hPa 0,0 l/m 2 min 0 min 302 W/m 3,2 km/h (1 Bft) 97,87 %
03.02.2019 10:56 2,1 C 7,8 C 0,6 C 99 % 1016,9 hPa 0,0 l/m 2 min 0 min 305 W/m 12,9 km/h (3 Bft) 97,87 %
03.02.2019 10:58 2,2 C 7,8 C 0,6 C 99 % 1017,0 hPa 0,0 l/m 2 min 0 min 293 W/m 6,4 km/h (2 Bft) 93,62 %
03.02.2019 11:00 2,2 C 7,8 C 0,6 C 99 % 1017,0 hPa 0,0 l/m 2 min 0 min 294 W/m 0,0 km/h (0 Bft) 95,65 %
03.02.2019 11:02 2,3 C 7,2 C 1,1 C 99 % 1017,1 hPa 0,0 l/m 2 min 0 min 250 W/m 0,0 km/h (0 Bft) 95,74 %
03.02.2019 11:04 2,3 C 7,2 C 1,1 C 99 % 1017,1 hPa 0,0 l/m 2 min 0 min 244 W/m 19,3 km/h (3 Bft) 95,74 %
03.02.2019 11:06 2,3 C 8,3 C 1,1 C 99 % 1017,1 hPa 0,0 l/m 2 min 0 min 300 W/m 9,7 km/h (2 Bft) 95,74 %
03.02.2019 11:08 2,4 C 8,3 C 1,1 C 99 % 1017,1 hPa 0,0 l/m 2 min 0 min 301 W/m 6,4 km/h (2 Bft) 93,62 %
03.02.2019 11:10 2,4 C 7,8 C 1,1 C 99 % 1017,1 hPa 0,0 l/m 2 min 0 min 241 W/m 0,0 km/h (0 Bft) 95,74 %
03.02.2019 11:12 2,5 C 7,8 C 1,1 C 99 % 1017,1 hPa 0,0 l/m 2 min 0 min 266 W/m 0,0 km/h (0 Bft) 95,65 %
03.02.2019 11:14 2,6 C 8,3 C 1,1 C 99 % 1017,1 hPa 0,0 l/m 2 min 0 min 265 W/m 3,2 km/h (1 Bft) 95,74 %
03.02.2019 11:16 2,6 C 7,8 C 1,1 C 99 % 1017,1 hPa 0,0 l/m 2 min 0 min 224 W/m 6,4 km/h (2 Bft) 95,74 %
03.02.2019 11:18 2,7 C 8,3 C 1,1 C 99 % 1017,2 hPa 0,0 l/m 2 min 0 min 202 W/m 12,9 km/h (3 Bft) 95,74 %
03.02.2019 11:20 2,7 C 8,9 C 1,1 C 99 % 1017,2 hPa 0,0 l/m 2 min 0 min 253 W/m 0,0 km/h (0 Bft) 95,74 %
03.02.2019 11:22 2,7 C 9,4 C 1,7 C 99 % 1017,3 hPa 0,0 l/m 2 min 0 min 304 W/m 0,0 km/h (0 Bft) 95,65 %
03.02.2019 11:24 2,8 C 8,3 C 1,7 C 99 % 1017,3 hPa 0,0 l/m 2 min 0 min 295 W/m 25,7 km/h (4 Bft) 95,74 %
03.02.2019 11:26 2,8 C 10,0 C 1,7 C 99 % 1017,3 hPa 0,0 l/m 2 min 0 min 346 W/m 22,5 km/h (4 Bft) 95,74 %
03.02.2019 11:28 2,8 C 10,0 C 1,7 C 99 % 1017,3 hPa 0,0 l/m 2 min 0 min 343 W/m 9,7 km/h (2 Bft) 93,62 %
03.02.2019 11:30 2,9 C 9,4 C 1,7 C 99 % 1017,4 hPa 0,0 l/m 2 min 0 min 306 W/m 16,1 km/h (3 Bft) 93,62 %
03.02.2019 11:32 2,9 C 10,6 C 1,7 C 99 % 1017,4 hPa 0,0 l/m 2 min 0 min 308 W/m 12,9 km/h (3 Bft) 95,74 %
03.02.2019 11:34 3,0 C 11,1 C 1,7 C 99 % 1017,5 hPa 0,0 l/m 2 min 0 min 272 W/m 3,2 km/h (1 Bft) 93,48 %
03.02.2019 11:36 3,1 C 11,1 C 1,7 C 99 % 1017,5 hPa 0,0 l/m 2 min 0 min 342 W/m 0,0 km/h (0 Bft) 95,74 %
03.02.2019 11:38 3,1 C 11,1 C 1,7 C 99 % 1017,6 hPa 0,0 l/m 2 min 0 min 367 W/m 25,7 km/h (4 Bft) 95,74 %
03.02.2019 11:40 3,2 C 11,1 C 1,7 C 99 % 1017,5 hPa 0,0 l/m 2 min 0 min 368 W/m 19,3 km/h (3 Bft) 89,36 %
03.02.2019 11:42 3,2 C 12,8 C 1,7 C 99 % 1017,6 hPa 0,0 l/m 2 min 0 min 368 W/m 3,2 km/h (1 Bft) 93,62 %
03.02.2019 11:44 3,3 C 12,8 C 1,7 C 99 % 1017,6 hPa 0,0 l/m 2 min 0 min 367 W/m 0,0 km/h (0 Bft) 89,36 %
03.02.2019 11:46 3,3 C 12,2 C 2,2 C 99 % 1017,6 hPa 0,0 l/m 2 min 0 min 377 W/m 3,2 km/h (1 Bft) 80,43 %
03.02.2019 11:48 3,4 C 11,7 C 2,2 C 99 % 1017,7 hPa 0,0 l/m 2 min 0 min 377 W/m 22,5 km/h (4 Bft) 78,72 %
03.02.2019 11:50 3,4 C 11,7 C 2,2 C 99 % 1017,6 hPa 0,0 l/m 2 min 0 min 381 W/m 19,3 km/h (3 Bft) 85,11 %
03.02.2019 11:52 3,4 C 12,2 C 2,2 C 99 % 1017,7 hPa 0,0 l/m 2 min 0 min 382 W/m 3,2 km/h (1 Bft) 85,11 %
03.02.2019 11:54 3,5 C 12,2 C 2,2 C 99 % 1017,8 hPa 0,0 l/m 2 min 0 min 384 W/m 19,3 km/h (3 Bft) 91,49 %
03.02.2019 11:56 3,6 C 12,8 C 2,2 C 99 % 1017,7 hPa 0,0 l/m 2 min 0 min 387 W/m 0,0 km/h (0 Bft) 82,98 %
03.02.2019 11:58 3,6 C 12,2 C 2,2 C 99 % 1017,7 hPa 0,0 l/m 2 min 0 min 387 W/m 22,5 km/h (4 Bft) 80,43 %
03.02.2019 12:00 3,7 C 12,8 C 2,2 C 99 % 1017,8 hPa 0,0 l/m 2 min 0 min 387 W/m 12,9 km/h (3 Bft) 85,11 %
03.02.2019 12:02 3,8 C 12,8 C 2,2 C 99 % 1017,8 hPa 0,0 l/m 2 min 0 min 387 W/m 0,0 km/h (0 Bft) 91,49 %
03.02.2019 12:04 3,8 C 12,8 C 2,8 C 99 % 1017,8 hPa 0,0 l/m 2 min 0 min 392 W/m 22,5 km/h (4 Bft) 89,36 %
03.02.2019 12:08 4,0 C 12,2 C 2,8 C 99 % 1017,9 hPa 0,0 l/m 4 min 0 min 391 W/m 19,3 km/h (3 Bft) 85,11 %
03.02.2019 12:10 4,1 C 12,8 C 2,8 C 99 % 1018,0 hPa 0,0 l/m 2 min 0 min 396 W/m 12,9 km/h (3 Bft) 84,78 %
03.02.2019 12:12 4,1 C 12,8 C 2,8 C 99 % 1018,0 hPa 0,0 l/m 2 min 0 min 389 W/m 22,5 km/h (4 Bft) 87,23 %
03.02.2019 12:14 4,2 C 12,8 C 2,8 C 99 % 1018,0 hPa 0,0 l/m 2 min 0 min 396 W/m 19,3 km/h (3 Bft) 85,11 %
03.02.2019 12:16 4,3 C 13,3 C 2,8 C 99 % 1018,0 hPa 0,0 l/m 2 min 0 min 396 W/m 16,1 km/h (3 Bft) 89,36 %
03.02.2019 12:18 4,4 C 13,9 C 2,8 C 99 % 1017,9 hPa 0,0 l/m 2 min 0 min 395 W/m 3,2 km/h (1 Bft) 82,98 %
03.02.2019 12:20 4,4 C 14,4 C 2,8 C 99 % 1018,0 hPa 0,0 l/m 2 min 0 min 395 W/m 16,1 km/h (3 Bft) 76,60 %
03.02.2019 12:22 4,6 C 13,9 C 3,3 C 99 % 1018,1 hPa 0,0 l/m 2 min 0 min 397 W/m 9,7 km/h (2 Bft) 67,39 %
03.02.2019 12:24 4,6 C 13,9 C 3,3 C 99 % 1018,2 hPa 0,0 l/m 2 min 0 min 405 W/m 0,0 km/h (0 Bft) 80,85 %
03.02.2019 12:26 4,7 C 13,9 C 3,3 C 99 % 1018,2 hPa 0,0 l/m 2 min 0 min 404 W/m 0,0 km/h (0 Bft) 80,85 %
03.02.2019 12:28 4,8 C 13,9 C 3,3 C 99 % 1018,2 hPa 0,0 l/m 2 min 0 min 408 W/m 0,0 km/h (0 Bft) 93,62 %
03.02.2019 12:30 4,8 C 13,3 C 4,4 C 99 % 1018,3 hPa 0,0 l/m 2 min 0 min 408 W/m 6,4 km/h (2 Bft) 95,74 %
03.02.2019 12:32 4,8 C 13,3 C 5,6 C 98 % 1018,2 hPa 0,0 l/m 2 min 0 min 406 W/m 19,3 km/h (3 Bft) 82,98 %
03.02.2019 12:34 4,9 C 13,3 C 6,7 C 98 % 1018,2 hPa 0,0 l/m 2 min 0 min 406 W/m 22,5 km/h (4 Bft) 84,78 %
03.02.2019 12:36 4,9 C 13,3 C 7,8 C 98 % 1018,3 hPa 0,0 l/m 2 min 0 min 408 W/m 12,9 km/h (3 Bft) 68,09 %
03.02.2019 12:38 5,1 C 14,4 C 9,4 C 98 % 1018,3 hPa 0,0 l/m 2 min 0 min 411 W/m 6,4 km/h (2 Bft) 76,60 %
03.02.2019 12:40 5,2 C 14,4 C 10,0 C 98 % 1018,5 hPa 0,0 l/m 2 min 0 min 412 W/m 16,1 km/h (3 Bft) 95,74 %
03.02.2019 12:42 5,2 C 14,4 C 10,0 C 97 % 1018,5 hPa 0,0 l/m 2 min 0 min 408 W/m 16,1 km/h (3 Bft) 82,98 %
03.02.2019 12:44 5,3 C 13,9 C 10,0 C 97 % 1018,5 hPa 0,0 l/m 2 min 0 min 413 W/m 19,3 km/h (3 Bft) 76,09 %
03.02.2019 12:46 5,4 C 14,4 C 10,6 C 96 % 1018,5 hPa 0,0 l/m 2 min 0 min 416 W/m 0,0 km/h (0 Bft) 87,23 %
03.02.2019 12:48 5,4 C 13,9 C 10,6 C 95 % 1018,4 hPa 0,0 l/m 2 min 0 min 417 W/m 22,5 km/h (4 Bft) 87,23 %
03.02.2019 12:50 5,5 C 13,9 C 10,6 C 95 % 1018,4 hPa 0,0 l/m 2 min 0 min 421 W/m 3,2 km/h (1 Bft) 82,98 %
03.02.2019 12:52 5,6 C 13,9 C 11,1 C 94 % 1018,6 hPa 0,0 l/m 2 min 0 min 427 W/m 0,0 km/h (0 Bft) 89,36 %
03.02.2019 12:54 5,6 C 13,9 C 10,0 C 93 % 1018,5 hPa 0,0 l/m 2 min 0 min 426 W/m 25,7 km/h (4 Bft) 89,36 %
03.02.2019 12:56 5,7 C 13,9 C 7,8 C 92 % 1018,5 hPa 0,0 l/m 2 min 0 min 418 W/m 0,0 km/h (0 Bft) 93,48 %
03.02.2019 12:58 5,7 C 13,9 C 6,7 C 91 % 1018,5 hPa 0,0 l/m 2 min 0 min 417 W/m 0,0 km/h (0 Bft) 78,72 %
03.02.2019 13:00 5,7 C 14,4 C 5,6 C 91 % 1018,5 hPa 0,0 l/m 2 min 0 min 430 W/m 0,0 km/h (0 Bft) 97,87 %
03.02.2019 13:02 5,8 C 13,9 C 5,0 C 90 % 1018,6 hPa 0,0 l/m 2 min 0 min 386 W/m 0,0 km/h (0 Bft) 97,87 %
03.02.2019 13:04 5,9 C 14,4 C 4,4 C 90 % 1018,6 hPa 0,0 l/m 2 min 0 min 431 W/m 22,5 km/h (4 Bft) 93,62 %
03.02.2019 13:06 5,9 C 14,4 C 4,4 C 89 % 1018,6 hPa 0,0 l/m 2 min 0 min 419 W/m 19,3 km/h (3 Bft) 96,15 %
03.02.2019 13:08 6,0 C 14,4 C 5,6 C 89 % 1018,6 hPa 0,0 l/m 2 min 0 min 435 W/m 12,9 km/h (3 Bft) 97,56 %
03.02.2019 13:10 6,1 C 15,6 C 6,7 C 88 % 1018,6 hPa 0,0 l/m 2 min 0 min 427 W/m 6,4 km/h (2 Bft) 97,87 %
03.02.2019 13:12 6,1 C 15,6 C 6,7 C 88 % 1018,7 hPa 0,0 l/m 2 min 0 min 422 W/m 0,0 km/h (0 Bft) 93,62 %
03.02.2019 13:14 6,2 C 15,6 C 5,6 C 88 % 1018,7 hPa 0,0 l/m 2 min 0 min 424 W/m 0,0 km/h (0 Bft) 89,36 %
03.02.2019 13:16 6,3 C 15,6 C 5,6 C 87 % 1018,7 hPa 0,0 l/m 2 min 0 min 437 W/m 0,0 km/h (0 Bft) 93,62 %
03.02.2019 13:18 6,4 C 15,6 C 5,6 C 87 % 1018,7 hPa 0,0 l/m 2 min 0 min 453 W/m 0,0 km/h (0 Bft) 97,87 %
03.02.2019 13:20 6,4 C 15,0 C 5,0 C 86 % 1018,8 hPa 0,0 l/m 2 min 0 min 463 W/m 25,7 km/h (4 Bft) 95,65 %
03.02.2019 13:22 6,5 C 15,0 C 5,0 C 86 % 1018,7 hPa 0,0 l/m 2 min 0 min 456 W/m 16,1 km/h (3 Bft) 93,62 %
03.02.2019 13:24 6,6 C 15,6 C 5,0 C 85 % 1018,8 hPa 0,0 l/m 2 min 0 min 465 W/m 0,0 km/h (0 Bft) 43,59 %
03.02.2019 13:26 6,7 C 16,7 C 5,0 C 85 % 1018,8 hPa 0,0 l/m 2 min 0 min 497 W/m 0,0 km/h (0 Bft) 95,74 %
03.02.2019 13:28 6,7 C 16,7 C 5,0 C 84 % 1018,8 hPa 0,0 l/m 2 min 0 min 486 W/m 0,0 km/h (0 Bft) 93,62 %
03.02.2019 13:30 6,8 C 16,7 C 5,6 C 84 % 1018,8 hPa 0,0 l/m 2 min 0 min 503 W/m 0,0 km/h (0 Bft) 95,74 %
03.02.2019 13:32 6,9 C 15,6 C 5,6 C 84 % 1018,8 hPa 0,0 l/m 2 min 0 min 381 W/m 0,0 km/h (0 Bft) 92,68 %
03.02.2019 13:34 6,9 C 16,1 C 5,6 C 83 % 1018,7 hPa 0,0 l/m 2 min 0 min 523 W/m 3,2 km/h (1 Bft) 95,74 %
03.02.2019 13:36 7,0 C 13,9 C 5,6 C 83 % 1018,8 hPa 0,0 l/m 2 min 0 min 487 W/m 12,9 km/h (3 Bft) 96,61 %
03.02.2019 13:38 7,0 C 11,1 C 5,6 C 82 % 1018,9 hPa 0,0 l/m 2 min 0 min 193 W/m 0,0 km/h (0 Bft) 94,74 %
03.02.2019 13:40 7,0 C 10,0 C 5,0 C 81 % 1018,9 hPa 0,0 l/m 2 min 0 min 195 W/m 0,0 km/h (0 Bft) 95,74 %
03.02.2019 13:42 7,0 C 8,9 C 5,0 C 81 % 1018,8 hPa 0,0 l/m 0 min 0 min 179 W/m 0,0 km/h (0 Bft) 95,65 %
03.02.2019 13:44 6,9 C 7,8 C 5,0 C 81 % 1018,8 hPa 0,0 l/m 0 min 0 min 165 W/m 0,0 km/h (0 Bft) 93,88 %
03.02.2019 13:46 6,8 C 7,2 C 4,4 C 80 % 1018,9 hPa 0,0 l/m 0 min 0 min 122 W/m 6,4 km/h (2 Bft) 95,74 %
03.02.2019 13:48 6,7 C 6,7 C 4,4 C 80 % 1018,9 hPa 0,0 l/m 0 min 0 min 99 W/m 16,1 km/h (3 Bft) 95,24 %
03.02.2019 13:50 6,6 C 6,1 C 3,9 C 80 % 1018,9 hPa 0,0 l/m 0 min 0 min 112 W/m 0,0 km/h (0 Bft) 95,74 %
03.02.2019 13:52 6,4 C 6,1 C 3,9 C 80 % 1019,0 hPa 0,0 l/m 0 min 0 min 138 W/m 0,0 km/h (0 Bft) 95,74 %
03.02.2019 13:54 6,4 C 7,8 C 4,4 C 80 % 1019,0 hPa 0,0 l/m 0 min 0 min 158 W/m 0,0 km/h (0 Bft) 95,65 %
03.02.2019 13:56 6,4 C 9,4 C 4,4 C 80 % 1019,0 hPa 0,0 l/m 2 min 0 min 193 W/m 0,0 km/h (0 Bft) 95,74 %
03.02.2019 13:58 6,3 C 11,7 C 5,0 C 81 % 1019,0 hPa 0,0 l/m 2 min 0 min 395 W/m 0,0 km/h (0 Bft) 96,00 %
03.02.2019 14:00 6,3 C 10,6 C 5,0 C 81 % 1019,0 hPa 0,0 l/m 2 min 0 min 278 W/m 0,0 km/h (0 Bft) 93,88 %
03.02.2019 14:02 6,3 C 11,7 C 5,0 C 81 % 1019,0 hPa 0,0 l/m 2 min 0 min 377 W/m 0,0 km/h (0 Bft) 97,87 %
03.02.2019 14:05 6,3 C 11,7 C 5,0 C 80 % 1019,0 hPa 0,0 l/m 3 min 0 min 351 W/m 0,0 km/h (0 Bft) 98,25 %
03.02.2019 14:08 6,4 C 10,6 C 5,0 C 80 % 1019,0 hPa 0,0 l/m 3 min 0 min 312 W/m 0,0 km/h (0 Bft) 97,73 %
03.02.2019 14:10 6,3 C 9,4 C 5,0 C 79 % 1019,1 hPa 0,0 l/m 0 min 0 min 168 W/m 0,0 km/h (0 Bft) 97,78 %
03.02.2019 14:12 6,3 C 8,3 C 5,0 C 80 % 1019,1 hPa 0,0 l/m 0 min 0 min 148 W/m 0,0 km/h (0 Bft) 95,35 %
03.02.2019 14:14 6,3 C 7,2 C 4,4 C 80 % 1019,1 hPa 0,0 l/m 0 min 0 min 152 W/m 16,1 km/h (3 Bft) 95,83 %
03.02.2019 14:16 6,2 C 7,2 C 4,4 C 79 % 1019,1 hPa 0,0 l/m 2 min 0 min 217 W/m 0,0 km/h (0 Bft) 94,00 %
03.02.2019 14:18 6,2 C 6,7 C 4,4 C 79 % 1019,1 hPa 0,0 l/m 0 min 0 min 108 W/m 0,0 km/h (0 Bft) 97,83 %
03.02.2019 14:20 6,1 C 6,1 C 3,9 C 79 % 1019,1 hPa 0,0 l/m 0 min 0 min 112 W/m 0,0 km/h (0 Bft) 99,12 %
03.02.2019 14:24 6,0 C 6,7 C 4,4 C 79 % 1019,1 hPa 0,0 l/m 0 min 0 min 160 W/m 0,0 km/h (0 Bft) 100,00 %
03.02.2019 14:26 6,0 C 7,2 C 4,4 C 80 % 1019,1 hPa 0,0 l/m 0 min 0 min 156 W/m 0,0 km/h (0 Bft) 95,74 %
03.02.2019 14:28 5,9 C 8,3 C 5,0 C 80 % 1019,1 hPa 0,0 l/m 0 min 0 min 152 W/m 0,0 km/h (0 Bft) 95,74 %
03.02.2019 14:30 6,0 C 11,1 C 5,6 C 81 % 1019,1 hPa 0,0 l/m 2 min 0 min 430 W/m 0,0 km/h (0 Bft) 97,14 %
03.02.2019 14:32 6,1 C 13,9 C 5,6 C 82 % 1019,2 hPa 0,0 l/m 2 min 0 min 436 W/m 0,0 km/h (0 Bft) 98,00 %
03.02.2019 14:34 6,2 C 15,0 C 5,6 C 83 % 1019,3 hPa 0,0 l/m 2 min 0 min 440 W/m 0,0 km/h (0 Bft) 97,87 %
03.02.2019 14:36 6,3 C 15,0 C 5,6 C 82 % 1019,3 hPa 0,0 l/m 2 min 0 min 432 W/m 0,0 km/h (0 Bft) 98,00 %
03.02.2019 14:38 6,4 C 15,0 C 5,6 C 82 % 1019,3 hPa 0,0 l/m 2 min 0 min 419 W/m 0,0 km/h (0 Bft) 95,74 %
03.02.2019 14:40 6,4 C 14,4 C 5,6 C 81 % 1019,3 hPa 0,0 l/m 2 min 0 min 415 W/m 0,0 km/h (0 Bft) 97,87 %
03.02.2019 14:42 6,5 C 13,9 C 5,6 C 80 % 1019,4 hPa 0,0 l/m 2 min 0 min 410 W/m 25,7 km/h (4 Bft) 97,83 %
03.02.2019 14:44 6,6 C 12,8 C 5,6 C 80 % 1019,3 hPa 0,0 l/m 2 min 0 min 401 W/m 6,4 km/h (2 Bft) 97,62 %
03.02.2019 14:46 6,6 C 13,3 C 5,6 C 79 % 1019,3 hPa 0,0 l/m 2 min 0 min 406 W/m 0,0 km/h (0 Bft) 98,18 %
03.02.2019 14:48 6,7 C 13,9 C 5,6 C 79 % 1019,3 hPa 0,0 l/m 2 min 0 min 420 W/m 0,0 km/h (0 Bft) 97,37 %
03.02.2019 14:50 6,8 C 14,4 C 6,1 C 79 % 1019,3 hPa 0,0 l/m 2 min 0 min 396 W/m 19,3 km/h (3 Bft) 100,00 %
03.02.2019 14:52 6,9 C 13,9 C 5,6 C 79 % 1019,3 hPa 0,0 l/m 2 min 0 min 365 W/m 22,5 km/h (4 Bft) 100,00 %
03.02.2019 14:54 6,9 C 13,9 C 5,6 C 77 % 1019,4 hPa 0,0 l/m 2 min 0 min 359 W/m 19,3 km/h (3 Bft) 100,00 %
03.02.2019 14:56 6,9 C 13,3 C 5,0 C 76 % 1019,4 hPa 0,0 l/m 2 min 0 min 353 W/m 19,3 km/h (3 Bft) 100,00 %
03.02.2019 14:58 7,0 C 13,9 C 5,0 C 76 % 1019,4 hPa 0,0 l/m 2 min 0 min 355 W/m 9,7 km/h (2 Bft) 97,87 %
03.02.2019 15:00 7,0 C 13,3 C 5,0 C 76 % 1019,4 hPa 0,0 l/m 2 min 0 min 364 W/m 0,0 km/h (0 Bft) 100,00 %
03.02.2019 15:02 7,1 C 12,2 C 5,0 C 76 % 1019,5 hPa 0,0 l/m 2 min 0 min 256 W/m 3,2 km/h (1 Bft) 100,00 %
03.02.2019 15:04 7,0 C 10,6 C 5,0 C 75 % 1019,4 hPa 0,0 l/m 2 min 0 min 242 W/m 0,0 km/h (0 Bft) 100,00 %
03.02.2019 15:06 7,0 C 9,4 C 5,0 C 74 % 1019,6 hPa 0,0 l/m 2 min 0 min 192 W/m 0,0 km/h (0 Bft) 100,00 %
03.02.2019 15:08 6,9 C 10,6 C 5,0 C 74 % 1019,5 hPa 0,0 l/m 2 min 0 min 235 W/m 0,0 km/h (0 Bft) 100,00 %
03.02.2019 15:10 6,9 C 9,4 C 5,0 C 75 % 1019,6 hPa 0,0 l/m 2 min 0 min 249 W/m 0,0 km/h (0 Bft) 100,00 %
03.02.2019 15:12 6,9 C 9,4 C 5,0 C 75 % 1019,6 hPa 0,0 l/m 2 min 0 min 229 W/m 19,3 km/h (3 Bft) 100,00 %
03.02.2019 15:14 6,8 C 10,6 C 5,0 C 75 % 1019,6 hPa 0,0 l/m 2 min 0 min 329 W/m 12,9 km/h (3 Bft) 100,00 %
03.02.2019 15:16 6,8 C 10,6 C 5,0 C 75 % 1019,6 hPa 0,0 l/m 2 min 0 min 287 W/m 0,0 km/h (0 Bft) 100,00 %
03.02.2019 15:18 6,8 C 8,9 C 5,0 C 75 % 1019,6 hPa 0,0 l/m 0 min 0 min 121 W/m 0,0 km/h (0 Bft) 97,87 %
03.02.2019 15:20 6,7 C 7,8 C 5,0 C 75 % 1019,7 hPa 0,0 l/m 0 min 0 min 106 W/m 3,2 km/h (1 Bft) 100,00 %
03.02.2019 15:22 6,6 C 7,2 C 5,0 C 75 % 1019,7 hPa 0,0 l/m 0 min 0 min 115 W/m 0,0 km/h (0 Bft) 100,00 %
03.02.2019 15:24 6,6 C 6,7 C 5,0 C 75 % 1019,7 hPa 0,0 l/m 0 min 0 min 117 W/m 12,9 km/h (3 Bft) 100,00 %
03.02.2019 15:26 6,6 C 6,7 C 5,0 C 75 % 1019,7 hPa 0,0 l/m 0 min 0 min 98 W/m 0,0 km/h (0 Bft) 100,00 %
03.02.2019 15:28 6,5 C 6,1 C 4,4 C 75 % 1019,7 hPa 0,0 l/m 0 min 0 min 88 W/m 9,7 km/h (2 Bft) 100,00 %
03.02.2019 15:30 6,4 C 6,1 C 4,4 C 75 % 1019,7 hPa 0,0 l/m 0 min 0 min 83 W/m 6,4 km/h (2 Bft) 100,00 %
03.02.2019 15:32 6,4 C 6,1 C 4,4 C 75 % 1019,7 hPa 0,0 l/m 0 min 0 min 75 W/m 0,0 km/h (0 Bft) 100,00 %
03.02.2019 15:34 6,3 C 5,6 C 4,4 C 75 % 1019,6 hPa 0,0 l/m 0 min 0 min 65 W/m 0,0 km/h (0 Bft) 100,00 %
03.02.2019 15:36 6,3 C 5,6 C 4,4 C 76 % 1019,7 hPa 0,0 l/m 0 min 0 min 57 W/m 0,0 km/h (0 Bft) 100,00 %
03.02.2019 15:38 6,2 C 5,6 C 4,4 C 76 % 1019,7 hPa 0,0 l/m 0 min 0 min 54 W/m 19,3 km/h (3 Bft) 100,00 %
03.02.2019 15:40 6,1 C 5,6 C 4,4 C 76 % 1019,7 hPa 0,0 l/m 0 min 0 min 53 W/m 0,0 km/h (0 Bft) 97,87 %
03.02.2019 15:42 6,1 C 5,0 C 3,9 C 76 % 1019,7 hPa 0,0 l/m 0 min 0 min 53 W/m 0,0 km/h (0 Bft) 97,87 %
03.02.2019 15:44 6,0 C 5,0 C 3,9 C 76 % 1019,9 hPa 0,0 l/m 0 min 0 min 53 W/m 0,0 km/h (0 Bft) 100,00 %
03.02.2019 15:46 6,0 C 5,0 C 3,9 C 77 % 1019,9 hPa 0,0 l/m 0 min 0 min 53 W/m 0,0 km/h (0 Bft) 97,87 %
03.02.2019 15:48 5,9 C 5,0 C 3,9 C 77 % 1019,9 hPa 0,0 l/m 0 min 0 min 53 W/m 0,0 km/h (0 Bft) 97,83 %
03.02.2019 15:50 5,9 C 5,0 C 3,9 C 77 % 1020,0 hPa 0,0 l/m 0 min 0 min 53 W/m 0,0 km/h (0 Bft) 98,18 %
03.02.2019 15:52 5,8 C 5,0 C 3,9 C 77 % 1020,0 hPa 0,0 l/m 0 min 0 min 54 W/m 0,0 km/h (0 Bft) 96,00 %
03.02.2019 15:54 5,8 C 5,0 C 3,9 C 78 % 1020,0 hPa 0,0 l/m 0 min 0 min 55 W/m 0,0 km/h (0 Bft) 95,83 %
03.02.2019 15:56 5,8 C 5,0 C 3,9 C 78 % 1020,0 hPa 0,0 l/m 0 min 0 min 62 W/m 0,0 km/h (0 Bft) 100,00 %
03.02.2019 15:58 5,7 C 5,0 C 3,9 C 78 % 1020,0 hPa 0,0 l/m 0 min 0 min 60 W/m 0,0 km/h (0 Bft) 97,87 %
03.02.2019 16:00 5,7 C 5,0 C 3,9 C 79 % 1020,0 hPa 0,0 l/m 0 min 0 min 64 W/m 0,0 km/h (0 Bft) 96,30 %
03.02.2019 16:02 5,7 C 5,0 C 3,9 C 79 % 1020,0 hPa 0,0 l/m 0 min 0 min 67 W/m 0,0 km/h (0 Bft) 97,87 %
03.02.2019 16:04 5,7 C 5,0 C 3,9 C 79 % 1020,0 hPa 0,0 l/m 0 min 0 min 64 W/m 0,0 km/h (0 Bft) 97,83 %
03.02.2019 16:06 5,6 C 5,0 C 3,9 C 79 % 1020,0 hPa 0,0 l/m 0 min 0 min 61 W/m 0,0 km/h (0 Bft) 96,00 %
03.02.2019 16:08 5,6 C 5,0 C 3,9 C 79 % 1020,1 hPa 0,0 l/m 0 min 0 min 57 W/m 0,0 km/h (0 Bft) 89,36 %
03.02.2019 16:10 5,6 C 5,0 C 3,9 C 80 % 1020,0 hPa 0,0 l/m 0 min 0 min 51 W/m 0,0 km/h (0 Bft) 97,87 %
03.02.2019 16:12 5,6 C 5,0 C 3,9 C 80 % 1020,0 hPa 0,0 l/m 0 min 0 min 50 W/m 0,0 km/h (0 Bft) 93,62 %
03.02.2019 16:14 5,5 C 5,0 C 3,9 C 80 % 1020,1 hPa 0,0 l/m 0 min 0 min 52 W/m 0,0 km/h (0 Bft) 95,83 %
03.02.2019 16:16 5,5 C 5,0 C 3,9 C 80 % 1020,1 hPa 0,0 l/m 0 min 0 min 54 W/m 0,0 km/h (0 Bft) 97,87 %
03.02.2019 16:18 5,4 C 5,0 C 3,9 C 80 % 1020,1 hPa 0,0 l/m 0 min 0 min 56 W/m 0,0 km/h (0 Bft) 88,57 %
03.02.2019 16:20 5,4 C 5,0 C 3,9 C 80 % 1020,1 hPa 0,0 l/m 0 min 0 min 56 W/m 0,0 km/h (0 Bft) 95,74 %
03.02.2019 16:22 5,4 C 5,0 C 3,9 C 80 % 1020,1 hPa 0,0 l/m 0 min 0 min 53 W/m 0,0 km/h (0 Bft) 94,44 %
03.02.2019 16:24 5,4 C 5,0 C 3,9 C 80 % 1020,1 hPa 0,0 l/m 0 min 0 min 51 W/m 3,2 km/h (1 Bft) 93,62 %
03.02.2019 16:26 5,3 C 5,0 C 3,9 C 80 % 1020,2 hPa 0,0 l/m 0 min 0 min 51 W/m 0,0 km/h (0 Bft) 89,36 %
03.02.2019 16:28 5,3 C 5,0 C 3,9 C 80 % 1020,2 hPa 0,0 l/m 0 min 0 min 48 W/m 0,0 km/h (0 Bft) 91,30 %
03.02.2019 16:30 5,3 C 5,0 C 3,9 C 81 % 1020,3 hPa 0,0 l/m 0 min 0 min 42 W/m 0,0 km/h (0 Bft) 94,00 %
03.02.2019 16:32 5,3 C 5,0 C 3,9 C 81 % 1020,3 hPa 0,0 l/m 0 min 0 min 38 W/m 0,0 km/h (0 Bft) 83,33 %
03.02.2019 16:34 5,3 C 4,4 C 3,3 C 81 % 1020,3 hPa 0,0 l/m 0 min 0 min 35 W/m 0,0 km/h (0 Bft) 76,60 %
03.02.2019 16:36 5,3 C 4,4 C 3,3 C 81 % 1020,4 hPa 0,0 l/m 0 min 0 min 32 W/m 0,0 km/h (0 Bft) 72,34 %
03.02.2019 16:38 5,2 C 4,4 C 3,3 C 81 % 1020,4 hPa 0,0 l/m 0 min 0 min 29 W/m 0,0 km/h (0 Bft) 78,72 %
03.02.2019 16:40 5,2 C 4,4 C 3,3 C 81 % 1020,4 hPa 0,0 l/m 0 min 0 min 26 W/m 0,0 km/h (0 Bft) 72,34 %
03.02.2019 16:42 5,2 C 4,4 C 3,3 C 81 % 1020,4 hPa 0,0 l/m 0 min 0 min 23 W/m 0,0 km/h (0 Bft) 82,61 %
03.02.2019 16:44 5,2 C 4,4 C 3,3 C 81 % 1020,4 hPa 0,0 l/m 0 min 0 min 20 W/m 0,0 km/h (0 Bft) 72,22 %
03.02.2019 16:46 5,1 C 4,4 C 3,3 C 81 % 1020,4 hPa 0,0 l/m 0 min 0 min 18 W/m 0,0 km/h (0 Bft) 68,52 %
03.02.2019 16:48 5,1 C 4,4 C 3,3 C 81 % 1020,5 hPa 0,0 l/m 0 min 0 min 16 W/m 0,0 km/h (0 Bft) 92,00 %
03.02.2019 16:50 5,0 C 3,9 C 3,3 C 81 % 1020,5 hPa 0,0 l/m 0 min 0 min 16 W/m 0,0 km/h (0 Bft) 95,65 %
03.02.2019 16:52 5,0 C 3,9 C 3,3 C 81 % 1020,5 hPa 0,0 l/m 0 min 0 min 16 W/m 0,0 km/h (0 Bft) 89,80 %
03.02.2019 16:54 4,9 C 3,9 C 3,3 C 81 % 1020,5 hPa 0,0 l/m 0 min 0 min 17 W/m 3,2 km/h (1 Bft) 94,29 %
03.02.2019 16:56 4,9 C 3,9 C 3,3 C 81 % 1020,6 hPa 0,0 l/m 0 min 0 min 18 W/m 0,0 km/h (0 Bft) 96,30 %
03.02.2019 16:58 4,9 C 3,9 C 3,3 C 81 % 1020,6 hPa 0,0 l/m 0 min 0 min 19 W/m 0,0 km/h (0 Bft) 90,00 %
03.02.2019 17:00 4,9 C 3,9 C 3,3 C 81 % 1020,6 hPa 0,0 l/m 0 min 0 min 18 W/m 0,0 km/h (0 Bft) 89,58 %
03.02.2019 17:02 4,8 C 3,9 C 3,3 C 81 % 1020,6 hPa 0,0 l/m 0 min 0 min 18 W/m 0,0 km/h (0 Bft) 91,43 %
03.02.2019 17:04 4,8 C 3,9 C 3,3 C 81 % 1020,7 hPa 0,0 l/m 0 min 0 min 18 W/m 0,0 km/h (0 Bft) 92,59 %
03.02.2019 17:06 4,8 C 3,9 C 2,8 C 82 % 1020,7 hPa 0,0 l/m 0 min 0 min 16 W/m 0,0 km/h (0 Bft) 96,00 %
03.02.2019 17:08 4,8 C 3,9 C 2,8 C 82 % 1020,7 hPa 0,0 l/m 0 min 0 min 15 W/m 0,0 km/h (0 Bft) 89,36 %
03.02.2019 17:10 4,7 C 3,9 C 2,8 C 82 % 1020,7 hPa 0,0 l/m 0 min 0 min 14 W/m 0,0 km/h (0 Bft) 93,62 %
03.02.2019 17:12 4,7 C 3,9 C 2,8 C 82 % 1020,7 hPa 0,0 l/m 0 min 0 min 12 W/m 3,2 km/h (1 Bft) 91,67 %
03.02.2019 17:14 4,7 C 3,9 C 2,8 C 82 % 1020,7 hPa 0,0 l/m 0 min 0 min 11 W/m 0,0 km/h (0 Bft) 94,29 %
03.02.2019 17:16 4,6 C 3,3 C 2,8 C 82 % 1020,7 hPa 0,0 l/m 0 min 0 min 9 W/m 0,0 km/h (0 Bft) 96,30 %
03.02.2019 17:18 4,6 C 3,3 C 2,2 C 82 % 1020,7 hPa 0,0 l/m 0 min 0 min 9 W/m 0,0 km/h (0 Bft) 96,00 %
03.02.2019 17:20 4,6 C 3,3 C 2,2 C 82 % 1020,8 hPa 0,0 l/m 0 min 0 min 7 W/m 0,0 km/h (0 Bft) 87,50 %
03.02.2019 17:22 4,5 C 2,8 C 2,2 C 82 % 1020,8 hPa 0,0 l/m 0 min 0 min 7 W/m 0,0 km/h (0 Bft) 95,74 %
03.02.2019 17:24 4,5 C 2,8 C 1,7 C 82 % 1020,8 hPa 0,0 l/m 0 min 0 min 5 W/m 0,0 km/h (0 Bft) 94,29 %
03.02.2019 17:26 4,4 C 2,8 C 1,7 C 82 % 1020,8 hPa 0,0 l/m 0 min 0 min 5 W/m 0,0 km/h (0 Bft) 94,44 %
03.02.2019 17:28 4,4 C 2,8 C 1,7 C 82 % 1020,9 hPa 0,0 l/m 0 min 0 min 5 W/m 0,0 km/h (0 Bft) 96,00 %
03.02.2019 17:30 4,4 C 2,8 C 1,7 C 82 % 1021,0 hPa 0,0 l/m 0 min 0 min 1 W/m 0,0 km/h (0 Bft) 95,74 %
03.02.2019 17:32 4,3 C 2,8 C 1,7 C 82 % 1021,0 hPa 0,0 l/m 0 min 0 min 0 W/m 0,0 km/h (0 Bft) 95,74 %
03.02.2019 17:34 4,3 C 2,2 C 1,7 C 82 % 1021,1 hPa 0,0 l/m 0 min 0 min 0 W/m 0,0 km/h (0 Bft) 97,87 %
03.02.2019 17:36 4,2 C 2,2 C 1,7 C 82 % 1021,2 hPa 0,0 l/m 0 min 0 min 0 W/m 0,0 km/h (0 Bft) 97,87 %
03.02.2019 17:38 4,2 C 2,2 C 1,1 C 83 % 1021,2 hPa 0,0 l/m 0 min 0 min 0 W/m 0,0 km/h (0 Bft) 95,65 %
03.02.2019 17:40 4,1 C 2,2 C 1,1 C 83 % 1021,3 hPa 0,0 l/m 0 min 0 min 0 W/m 0,0 km/h (0 Bft) 95,74 %
03.02.2019 17:42 4,0 C 2,2 C 1,1 C 83 % 1021,3 hPa 0,0 l/m 0 min 0 min 0 W/m 0,0 km/h (0 Bft) 97,87 %
03.02.2019 17:44 4,0 C 2,2 C 1,1 C 83 % 1021,3 hPa 0,0 l/m 0 min 0 min 0 W/m 0,0 km/h (0 Bft) 97,87 %
03.02.2019 17:46 3,9 C 2,2 C 1,1 C 83 % 1021,3 hPa 0,0 l/m 0 min 0 min 0 W/m 0,0 km/h (0 Bft) 97,87 %
03.02.2019 17:48 3,9 C 2,2 C 1,1 C 83 % 1021,3 hPa 0,0 l/m 0 min 0 min 0 W/m 0,0 km/h (0 Bft) 95,83 %
03.02.2019 17:50 3,8 C 2,2 C 1,1 C 83 % 1021,3 hPa 0,0 l/m 0 min 0 min 0 W/m 0,0 km/h (0 Bft) 97,87 %
03.02.2019 17:52 3,8 C 2,2 C 1,1 C 83 % 1021,4 hPa 0,0 l/m 0 min 0 min 0 W/m 0,0 km/h (0 Bft) 100,00 %
03.02.2019 17:54 3,7 C 2,2 C 1,1 C 83 % 1021,4 hPa 0,0 l/m 0 min 0 min 0 W/m 0,0 km/h (0 Bft) 100,00 %
03.02.2019 17:56 3,7 C 2,2 C 1,1 C 83 % 1021,5 hPa 0,0 l/m 0 min 0 min 0 W/m 0,0 km/h (0 Bft) 100,00 %
03.02.2019 17:58 3,7 C 2,2 C 1,1 C 83 % 1021,5 hPa 0,0 l/m 0 min 0 min 0 W/m 0,0 km/h (0 Bft) 97,83 %
03.02.2019 18:00 3,6 C 2,2 C 1,1 C 83 % 1021,4 hPa 0,0 l/m 0 min 0 min 0 W/m 0,0 km/h (0 Bft) 100,00 %
03.02.2019 18:02 3,6 C 2,2 C 1,1 C 83 % 1021,5 hPa 0,0 l/m 0 min 0 min 0 W/m 0,0 km/h (0 Bft) 100,00 %
03.02.2019 18:04 3,5 C 2,2 C 1,1 C 84 % 1021,5 hPa 0,0 l/m 0 min 0 min 0 W/m 0,0 km/h (0 Bft) 100,00 %
03.02.2019 18:08 3,4 C 2,2 C 1,1 C 84 % 1021,6 hPa 0,0 l/m 0 min 0 min 0 W/m 0,0 km/h (0 Bft) 100,00 %
03.02.2019 18:10 3,4 C 2,2 C 1,1 C 84 % 1021,6 hPa 0,0 l/m 0 min 0 min 0 W/m 0,0 km/h (0 Bft) 97,14 %
03.02.2019 18:12 3,4 C 2,2 C 1,1 C 84 % 1021,6 hPa 0,0 l/m 0 min 0 min 0 W/m 0,0 km/h (0 Bft) 100,00 %
03.02.2019 18:14 3,3 C 1,7 C 1,1 C 84 % 1021,7 hPa 0,0 l/m 0 min 0 min 0 W/m 0,0 km/h (0 Bft) 100,00 %
03.02.2019 18:16 3,3 C 1,7 C 1,1 C 84 % 1021,7 hPa 0,0 l/m 0 min 0 min 0 W/m 0,0 km/h (0 Bft) 100,00 %
03.02.2019 18:18 3,2 C 1,7 C 0,6 C 84 % 1021,7 hPa 0,0 l/m 0 min 0 min 0 W/m 0,0 km/h (0 Bft) 100,00 %
03.02.2019 18:20 3,2 C 1,7 C 0,6 C 84 % 1021,7 hPa 0,0 l/m 0 min 0 min 0 W/m 0,0 km/h (0 Bft) 100,00 %
03.02.2019 18:22 3,2 C 1,7 C 0,6 C 84 % 1021,7 hPa 0,0 l/m 0 min 0 min 0 W/m 0,0 km/h (0 Bft) 100,00 %
03.02.2019 18:24 3,2 C 1,7 C 0,6 C 84 % 1021,8 hPa 0,0 l/m 0 min 0 min 0 W/m 0,0 km/h (0 Bft) 100,00 %
03.02.2019 18:26 3,1 C 1,7 C 0,6 C 84 % 1021,7 hPa 0,0 l/m 0 min 0 min 0 W/m 0,0 km/h (0 Bft) 100,00 %
03.02.2019 18:28 3,1 C 1,7 C 0,6 C 85 % 1021,8 hPa 0,0 l/m 0 min 0 min 0 W/m 0,0 km/h (0 Bft) 100,00 %
03.02.2019 18:30 3,1 C 1,7 C 0,6 C 85 % 1021,9 hPa 0,0 l/m 0 min 0 min 0 W/m 0,0 km/h (0 Bft) 100,00 %
03.02.2019 18:32 3,0 C 1,7 C 0,6 C 85 % 1021,8 hPa 0,0 l/m 0 min 0 min 0 W/m 0,0 km/h (0 Bft) 97,92 %
03.02.2019 18:34 2,9 C 1,7 C 0,6 C 85 % 1021,9 hPa 0,0 l/m 0 min 0 min 0 W/m 0,0 km/h (0 Bft) 100,00 %
03.02.2019 18:36 2,9 C 1,7 C 0,0 C 85 % 1021,9 hPa 0,0 l/m 0 min 0 min 0 W/m 0,0 km/h (0 Bft) 100,00 %
03.02.2019 18:38 2,9 C 1,7 C 0,0 C 85 % 1022,0 hPa 0,0 l/m 0 min 0 min 0 W/m 0,0 km/h (0 Bft) 95,74 %
03.02.2019 18:40 2,9 C 1,7 C 0,0 C 85 % 1022,0 hPa 0,0 l/m 0 min 0 min 0 W/m 0,0 km/h (0 Bft) 97,83 %
03.02.2019 18:42 2,8 C 1,1 C 0,0 C 85 % 1022,0 hPa 0,0 l/m 0 min 0 min 0 W/m 0,0 km/h (0 Bft) 100,00 %
03.02.2019 18:44 2,8 C 1,1 C 0,0 C 85 % 1022,0 hPa 0,0 l/m 0 min 0 min 0 W/m 0,0 km/h (0 Bft) 100,00 %
03.02.2019 18:46 2,8 C 1,1 C 0,0 C 85 % 1022,1 hPa 0,0 l/m 0 min 0 min 0 W/m 0,0 km/h (0 Bft) 100,00 %
03.02.2019 18:48 2,7 C 1,1 C 0,0 C 85 % 1022,1 hPa 0,0 l/m 0 min 0 min 0 W/m 0,0 km/h (0 Bft) 100,00 %
03.02.2019 18:50 2,7 C 1,1 C -0,6 C 85 % 1022,1 hPa 0,0 l/m 0 min 0 min 0 W/m 0,0 km/h (0 Bft) 100,00 %
03.02.2019 18:52 2,7 C 1,1 C -0,6 C 85 % 1022,0 hPa 0,0 l/m 0 min 0 min 0 W/m 0,0 km/h (0 Bft) 100,00 %
03.02.2019 18:54 2,6 C 1,1 C -0,6 C 85 % 1022,0 hPa 0,0 l/m 0 min 0 min 0 W/m 0,0 km/h (0 Bft) 98,00 %
03.02.2019 18:56 2,6 C 1,1 C -0,6 C 85 % 1022,1 hPa 0,0 l/m 0 min 0 min 0 W/m 0,0 km/h (0 Bft) 97,92 %
03.02.2019 18:58 2,6 C 1,1 C -0,6 C 85 % 1022,0 hPa 0,0 l/m 0 min 0 min 0 W/m 0,0 km/h (0 Bft) 100,00 %
03.02.2019 19:00 2,5 C 1,1 C -0,6 C 85 % 1022,1 hPa 0,0 l/m 0 min 0 min 0 W/m 0,0 km/h (0 Bft) 100,00 %
03.02.2019 19:02 2,4 C 1,1 C -0,6 C 85 % 1022,1 hPa 0,0 l/m 0 min 0 min 0 W/m 0,0 km/h (0 Bft) 98,00 %
03.02.2019 19:04 2,4 C 0,6 C -0,6 C 85 % 1022,1 hPa 0,0 l/m 0 min 0 min 0 W/m 0,0 km/h (0 Bft) 100,00 %
03.02.2019 19:06 2,4 C 0,6 C -0,6 C 85 % 1022,2 hPa 0,0 l/m 0 min 0 min 0 W/m 0,0 km/h (0 Bft) 97,87 %
03.02.2019 19:08 2,3 C 0,6 C -0,6 C 85 % 1022,2 hPa 0,0 l/m 0 min 0 min 0 W/m 0,0 km/h (0 Bft) 100,00 %
03.02.2019 19:10 2,3 C 0,6 C -1,1 C 85 % 1022,2 hPa 0,0 l/m 0 min 0 min 0 W/m 0,0 km/h (0 Bft) 100,00 %
03.02.2019 19:12 2,3 C 0,6 C -1,1 C 85 % 1022,2 hPa 0,0 l/m 0 min 0 min 0 W/m 0,0 km/h (0 Bft) 100,00 %
03.02.2019 19:14 2,2 C 0,6 C -1,1 C 86 % 1022,3 hPa 0,0 l/m 0 min 0 min 0 W/m 0,0 km/h (0 Bft) 96,30 %
03.02.2019 19:16 2,2 C 0,6 C -1,1 C 86 % 1022,2 hPa 0,0 l/m 0 min 0 min 0 W/m 0,0 km/h (0 Bft) 96,00 %
03.02.2019 19:18 2,2 C 0,6 C -1,1 C 86 % 1022,2 hPa 0,0 l/m 0 min 0 min 0 W/m 0,0 km/h (0 Bft) 97,92 %
03.02.2019 19:20 2,1 C 0,6 C -1,1 C 86 % 1022,3 hPa 0,0 l/m 0 min 0 min 0 W/m 0,0 km/h (0 Bft) 100,00 %
03.02.2019 19:22 2,1 C 1,1 C -1,1 C 86 % 1022,2 hPa 0,0 l/m 0 min 0 min 0 W/m 0,0 km/h (0 Bft) 95,74 %
03.02.2019 19:24 2,1 C 0,6 C -1,1 C 86 % 1022,1 hPa 0,0 l/m 0 min 0 min 0 W/m 0,0 km/h (0 Bft) 95,74 %
03.02.2019 19:26 2,0 C 0,6 C -1,1 C 86 % 1022,3 hPa 0,0 l/m 0 min 0 min 0 W/m 0,0 km/h (0 Bft) 98,15 %
03.02.2019 19:28 1,9 C 0,6 C -1,1 C 86 % 1022,3 hPa 0,0 l/m 0 min 0 min 0 W/m 0,0 km/h (0 Bft) 96,00 %
03.02.2019 19:30 1,9 C 0,6 C -1,7 C 86 % 1022,3 hPa 0,0 l/m 0 min 0 min 0 W/m 0,0 km/h (0 Bft) 95,83 %
03.02.2019 19:32 1,9 C 0,0 C -1,7 C 86 % 1022,4 hPa 0,0 l/m 0 min 0 min 0 W/m 0,0 km/h (0 Bft) 97,14 %
03.02.2019 19:34 1,9 C 0,0 C -1,7 C 86 % 1022,4 hPa 0,0 l/m 0 min 0 min 0 W/m 0,0 km/h (0 Bft) 98,15 %
03.02.2019 19:36 1,8 C 0,6 C -1,7 C 86 % 1022,5 hPa 0,0 l/m 0 min 0 min 0 W/m 0,0 km/h (0 Bft) 96,00 %
03.02.2019 19:38 1,8 C 0,0 C -1,7 C 86 % 1022,5 hPa 0,0 l/m 0 min 0 min 0 W/m 0,0 km/h (0 Bft) 95,83 %
03.02.2019 19:40 1,7 C 0,0 C -1,7 C 86 % 1022,4 hPa 0,0 l/m 0 min 0 min 0 W/m 0,0 km/h (0 Bft) 97,87 %
03.02.2019 19:42 1,7 C 0,6 C -1,7 C 86 % 1022,5 hPa 0,0 l/m 0 min 0 min 0 W/m 0,0 km/h (0 Bft) 95,74 %
03.02.2019 19:44 1,7 C 0,6 C -1,7 C 86 % 1022,5 hPa 0,0 l/m 0 min 0 min 0 W/m 0,0 km/h (0 Bft) 95,74 %
03.02.2019 19:46 1,7 C 0,6 C -1,7 C 87 % 1022,6 hPa 0,0 l/m 0 min 0 min 0 W/m 0,0 km/h (0 Bft) 95,74 %
03.02.2019 19:48 1,6 C 0,6 C -1,7 C 87 % 1022,6 hPa 0,0 l/m 0 min 0 min 0 W/m 0,0 km/h (0 Bft) 91,43 %
03.02.2019 19:50 1,6 C 0,6 C -1,7 C 87 % 1022,6 hPa 0,0 l/m 0 min 0 min 0 W/m 0,0 km/h (0 Bft) 97,87 %
03.02.2019 19:52 1,6 C 0,6 C -1,7 C 87 % 1022,7 hPa 0,0 l/m 0 min 0 min 0 W/m 0,0 km/h (0 Bft) 97,83 %
03.02.2019 19:54 1,6 C 0,6 C -1,7 C 87 % 1022,7 hPa 0,0 l/m 0 min 0 min 0 W/m 0,0 km/h (0 Bft) 98,15 %
03.02.2019 19:56 1,5 C 0,6 C -1,7 C 87 % 1022,7 hPa 0,0 l/m 0 min 0 min 0 W/m 0,0 km/h (0 Bft) 93,62 %
03.02.2019 19:58 1,5 C 0,6 C -1,7 C 87 % 1022,7 hPa 0,0 l/m 0 min 0 min 0 W/m 0,0 km/h (0 Bft) 84,78 %
03.02.2019 20:00 1,4 C 0,6 C -1,7 C 87 % 1022,7 hPa 0,0 l/m 0 min 0 min 0 W/m 0,0 km/h (0 Bft) 93,62 %
03.02.2019 20:02 1,4 C 0,6 C -1,7 C 87 % 1022,8 hPa 0,0 l/m 0 min 0 min 0 W/m 0,0 km/h (0 Bft) 96,00 %
03.02.2019 20:04 1,4 C 0,6 C -1,7 C 87 % 1022,8 hPa 0,0 l/m 0 min 0 min 0 W/m 0,0 km/h (0 Bft) 95,92 %
03.02.2019 20:06 1,4 C 0,0 C -1,7 C 88 % 1022,7 hPa 0,0 l/m 0 min 0 min 0 W/m 0,0 km/h (0 Bft) 95,74 %
03.02.2019 20:08 1,4 C 0,0 C -1,7 C 88 % 1022,7 hPa 0,0 l/m 0 min 0 min 0 W/m 0,0 km/h (0 Bft) 95,74 %
03.02.2019 20:10 1,3 C 0,0 C -1,7 C 88 % 1022,7 hPa 0,0 l/m 0 min 0 min 0 W/m 0,0 km/h (0 Bft) 95,74 %
03.02.2019 20:12 1,3 C 0,0 C -1,7 C 88 % 1022,8 hPa 0,0 l/m 0 min 0 min 0 W/m 0,0 km/h (0 Bft) 91,30 %
03.02.2019 20:14 1,3 C 0,6 C -1,7 C 88 % 1022,8 hPa 0,0 l/m 0 min 0 min 0 W/m 0,0 km/h (0 Bft) 97,22 %
03.02.2019 20:16 1,3 C 0,6 C -1,1 C 88 % 1022,8 hPa 0,0 l/m 0 min 0 min 0 W/m 0,0 km/h (0 Bft) 90,74 %
03.02.2019 20:18 1,3 C 0,6 C -1,1 C 88 % 1022,8 hPa 0,0 l/m 0 min 0 min 0 W/m 0,0 km/h (0 Bft) 94,00 %
03.02.2019 20:20 1,2 C 0,6 C -1,1 C 88 % 1022,9 hPa 0,0 l/m 0 min 0 min 0 W/m 0,0 km/h (0 Bft) 95,83 %
03.02.2019 20:22 1,2 C 0,6 C -1,1 C 88 % 1022,8 hPa 0,0 l/m 0 min 0 min 0 W/m 0,0 km/h (0 Bft) 95,74 %
03.02.2019 20:24 1,2 C 0,6 C -1,1 C 89 % 1022,9 hPa 0,0 l/m 0 min 0 min 0 W/m 0,0 km/h (0 Bft) 94,29 %
03.02.2019 20:26 1,2 C 0,6 C -1,1 C 89 % 1022,9 hPa 0,0 l/m 0 min 0 min 0 W/m 0,0 km/h (0 Bft) 95,74 %
03.02.2019 20:28 1,2 C 0,6 C -1,1 C 89 % 1022,9 hPa 0,0 l/m 0 min 0 min 0 W/m 0,0 km/h (0 Bft) 94,44 %
03.02.2019 20:30 1,2 C 0,6 C -1,1 C 89 % 1023,0 hPa 0,0 l/m 0 min 0 min 0 W/m 0,0 km/h (0 Bft) 96,00 %
03.02.2019 20:32 1,2 C 0,0 C -1,7 C 89 % 1023,0 hPa 0,0 l/m 0 min 0 min 0 W/m 0,0 km/h (0 Bft) 93,75 %
03.02.2019 20:34 1,2 C 0,0 C -1,7 C 89 % 1022,9 hPa 0,0 l/m 0 min 0 min 0 W/m 0,0 km/h (0 Bft) 95,74 %
03.02.2019 20:36 1,1 C 0,0 C -1,7 C 89 % 1023,0 hPa 0,0 l/m 0 min 0 min 0 W/m 0,0 km/h (0 Bft) 95,65 %
03.02.2019 20:38 1,1 C 0,0 C -1,7 C 89 % 1023,0 hPa 0,0 l/m 0 min 0 min 0 W/m 0,0 km/h (0 Bft) 95,74 %
03.02.2019 20:40 1,1 C 0,0 C -1,7 C 89 % 1023,0 hPa 0,0 l/m 0 min 0 min 0 W/m 0,0 km/h (0 Bft) 95,74 %
03.02.2019 20:42 1,1 C 0,0 C -1,7 C 89 % 1023,1 hPa 0,0 l/m 0 min 0 min 0 W/m 0,0 km/h (0 Bft) 94,29 %
03.02.2019 20:44 1,1 C 0,0 C -1,7 C 89 % 1023,1 hPa 0,0 l/m 0 min 0 min 0 W/m 0,0 km/h (0 Bft) 96,30 %
03.02.2019 20:46 1,1 C -0,6 C -1,7 C 89 % 1023,1 hPa 0,0 l/m 0 min 0 min 0 W/m 0,0 km/h (0 Bft) 93,62 %
03.02.2019 20:48 1,0 C 0,0 C -1,7 C 90 % 1023,1 hPa 0,0 l/m 0 min 0 min 0 W/m 0,0 km/h (0 Bft) 95,74 %
03.02.2019 20:50 1,0 C 0,0 C -1,7 C 90 % 1023,0 hPa 0,0 l/m 0 min 0 min 0 W/m 0,0 km/h (0 Bft) 98,00 %
03.02.2019 20:52 0,9 C 0,0 C -1,7 C 89 % 1023,2 hPa 0,0 l/m 0 min 0 min 0 W/m 0,0 km/h (0 Bft) 95,83 %
03.02.2019 20:54 0,9 C 0,0 C -1,7 C 89 % 1023,2 hPa 0,0 l/m 0 min 0 min 0 W/m 0,0 km/h (0 Bft) 95,74 %
03.02.2019 20:56 0,9 C 0,0 C -1,7 C 90 % 1023,2 hPa 0,0 l/m 0 min 0 min 0 W/m 3,2 km/h (1 Bft) 91,43 %
03.02.2019 20:58 0,9 C -0,6 C -2,2 C 90 % 1023,2 hPa 0,0 l/m 0 min 0 min 0 W/m 3,2 km/h (1 Bft) 97,87 %
03.02.2019 21:00 0,9 C 0,0 C -1,7 C 90 % 1023,3 hPa 0,0 l/m 0 min 0 min 0 W/m 0,0 km/h (0 Bft) 100,00 %
03.02.2019 21:02 0,8 C 0,0 C -2,2 C 90 % 1023,3 hPa 0,0 l/m 0 min 0 min 0 W/m 0,0 km/h (0 Bft) 98,15 %
03.02.2019 21:04 0,8 C 0,0 C -1,7 C 90 % 1023,3 hPa 0,0 l/m 0 min 0 min 0 W/m 0,0 km/h (0 Bft) 96,00 %
03.02.2019 21:06 0,8 C 0,0 C -2,2 C 90 % 1023,3 hPa 0,0 l/m 0 min 0 min 0 W/m 0,0 km/h (0 Bft) 95,74 %
03.02.2019 21:08 0,8 C 0,0 C -2,2 C 90 % 1023,4 hPa 0,0 l/m 0 min 0 min 0 W/m 3,2 km/h (1 Bft) 97,87 %
03.02.2019 21:10 0,8 C -0,6 C -2,2 C 90 % 1023,3 hPa 0,0 l/m 0 min 0 min 0 W/m 0,0 km/h (0 Bft) 97,87 %
03.02.2019 21:12 0,7 C -0,6 C -2,2 C 90 % 1023,3 hPa 0,0 l/m 0 min 0 min 0 W/m 0,0 km/h (0 Bft) 94,44 %
03.02.2019 21:14 0,7 C -0,6 C -2,2 C 90 % 1023,3 hPa 0,0 l/m 0 min 0 min 0 W/m 0,0 km/h (0 Bft) 95,65 %
03.02.2019 21:16 0,7 C -0,6 C -1,7 C 90 % 1023,3 hPa 0,0 l/m 0 min 0 min 0 W/m 0,0 km/h (0 Bft) 96,30 %
03.02.2019 21:18 0,7 C -0,6 C -2,2 C 90 % 1023,4 hPa 0,0 l/m 0 min 0 min 0 W/m 0,0 km/h (0 Bft) 97,96 %
03.02.2019 21:20 0,6 C -0,6 C -2,2 C 90 % 1023,4 hPa 0,0 l/m 0 min 0 min 0 W/m 0,0 km/h (0 Bft) 97,87 %
03.02.2019 21:22 0,6 C 0,0 C -2,2 C 90 % 1023,4 hPa 0,0 l/m 0 min 0 min 0 W/m 0,0 km/h (0 Bft) 97,96 %
03.02.2019 21:24 0,6 C 0,0 C -2,2 C 90 % 1023,3 hPa 0,0 l/m 0 min 0 min 0 W/m 0,0 km/h (0 Bft) 95,74 %
03.02.2019 21:26 0,6 C 0,0 C -1,7 C 90 % 1023,4 hPa 0,0 l/m 0 min 0 min 0 W/m 0,0 km/h (0 Bft) 97,22 %
03.02.2019 21:28 0,6 C 0,0 C -1,7 C 90 % 1023,4 hPa 0,0 l/m 0 min 0 min 0 W/m 0,0 km/h (0 Bft) 97,83 %
03.02.2019 21:30 0,6 C 0,0 C -1,7 C 91 % 1023,5 hPa 0,0 l/m 0 min 0 min 0 W/m 0,0 km/h (0 Bft) 98,15 %
03.02.2019 21:32 0,6 C 0,0 C -1,7 C 91 % 1023,6 hPa 0,0 l/m 0 min 0 min 0 W/m 0,0 km/h (0 Bft) 97,83 %
03.02.2019 21:34 0,6 C 0,0 C -1,7 C 91 % 1023,5 hPa 0,0 l/m 0 min 0 min 0 W/m 0,0 km/h (0 Bft) 100,00 %
03.02.2019 21:36 0,6 C 0,0 C -1,7 C 91 % 1023,6 hPa 0,0 l/m 0 min 0 min 0 W/m 0,0 km/h (0 Bft) 98,00 %
03.02.2019 21:38 0,6 C 0,0 C -1,7 C 91 % 1023,5 hPa 0,0 l/m 0 min 0 min 0 W/m 0,0 km/h (0 Bft) 97,87 %
03.02.2019 21:40 0,5 C 0,0 C -1,7 C 91 % 1023,5 hPa 0,0 l/m 0 min 0 min 0 W/m 0,0 km/h (0 Bft) 100,00 %
03.02.2019 21:42 0,5 C 0,0 C -1,7 C 91 % 1023,6 hPa 0,0 l/m 0 min 0 min 0 W/m 0,0 km/h (0 Bft) 100,00 %
03.02.2019 21:44 0,5 C 0,0 C -2,2 C 91 % 1023,6 hPa 0,0 l/m 0 min 0 min 0 W/m 0,0 km/h (0 Bft) 100,00 %
03.02.2019 21:46 0,6 C 0,0 C -2,2 C 91 % 1023,7 hPa 0,0 l/m 0 min 0 min 0 W/m 0,0 km/h (0 Bft) 100,00 %
03.02.2019 21:48 0,5 C -0,6 C -2,2 C 91 % 1023,7 hPa 0,0 l/m 0 min 0 min 0 W/m 0,0 km/h (0 Bft) 96,23 %
03.02.2019 21:50 0,5 C 0,0 C -1,7 C 91 % 1023,7 hPa 0,0 l/m 0 min 0 min 0 W/m 0,0 km/h (0 Bft) 100,00 %
03.02.2019 21:52 0,5 C 0,0 C -1,7 C 91 % 1023,7 hPa 0,0 l/m 0 min 0 min 0 W/m 0,0 km/h (0 Bft) 97,96 %
03.02.2019 21:54 0,5 C -0,6 C -2,2 C 91 % 1023,7 hPa 0,0 l/m 0 min 0 min 0 W/m 0,0 km/h (0 Bft) 100,00 %
03.02.2019 21:56 0,5 C -0,6 C -2,2 C 91 % 1023,6 hPa 0,0 l/m 0 min 0 min 0 W/m 0,0 km/h (0 Bft) 100,00 %
03.02.2019 21:58 0,5 C -0,6 C -2,2 C 91 % 1023,8 hPa 0,0 l/m 0 min 0 min 0 W/m 0,0 km/h (0 Bft) 100,00 %
03.02.2019 22:00 0,5 C -0,6 C -2,2 C 91 % 1023,8 hPa 0,0 l/m 0 min 0 min 0 W/m 0,0 km/h (0 Bft) 100,00 %
03.02.2019 22:02 0,5 C -0,6 C -2,2 C 91 % 1023,8 hPa 0,0 l/m 0 min 0 min 0 W/m 0,0 km/h (0 Bft) 98,00 %
03.02.2019 22:04 0,5 C -1,1 C -2,2 C 91 % 1023,8 hPa 0,0 l/m 0 min 0 min 0 W/m 0,0 km/h (0 Bft) 97,87 %
03.02.2019 22:06 0,5 C -1,1 C -2,2 C 91 % 1023,8 hPa 0,0 l/m 0 min 0 min 0 W/m 0,0 km/h (0 Bft) 95,92 %
03.02.2019 22:08 0,5 C -0,6 C -2,2 C 91 % 1023,8 hPa 0,0 l/m 0 min 0 min 0 W/m 0,0 km/h (0 Bft) 93,62 %
03.02.2019 22:10 0,4 C -0,6 C -2,2 C 91 % 1023,9 hPa 0,0 l/m 0 min 0 min 0 W/m 0,0 km/h (0 Bft) 95,65 %
03.02.2019 22:12 0,4 C -0,6 C -2,2 C 91 % 1023,9 hPa 0,0 l/m 0 min 0 min 0 W/m 0,0 km/h (0 Bft) 97,14 %
03.02.2019 22:14 0,4 C -1,1 C -2,2 C 91 % 1024,0 hPa 0,0 l/m 0 min 0 min 0 W/m 0,0 km/h (0 Bft) 100,00 %
03.02.2019 22:16 0,4 C -0,6 C -2,2 C 91 % 1023,9 hPa 0,0 l/m 0 min 0 min 0 W/m 0,0 km/h (0 Bft) 98,00 %
03.02.2019 22:18 0,3 C -1,1 C -2,2 C 91 % 1023,9 hPa 0,0 l/m 0 min 0 min 0 W/m 0,0 km/h (0 Bft) 100,00 %
03.02.2019 22:20 0,3 C -1,1 C -2,2 C 91 % 1024,0 hPa 0,0 l/m 0 min 0 min 0 W/m 0,0 km/h (0 Bft) 100,00 %
03.02.2019 22:22 0,3 C -1,1 C -2,2 C 91 % 1024,0 hPa 0,0 l/m 0 min 0 min 0 W/m 0,0 km/h (0 Bft) 100,00 %
03.02.2019 22:24 0,3 C -0,6 C -2,2 C 92 % 1024,0 hPa 0,0 l/m 0 min 0 min 0 W/m 0,0 km/h (0 Bft) 100,00 %
03.02.2019 22:26 0,3 C -0,6 C -2,2 C 92 % 1024,0 hPa 0,0 l/m 0 min 0 min 0 W/m 0,0 km/h (0 Bft) 96,30 %
03.02.2019 22:28 0,2 C -0,6 C -2,2 C 92 % 1024,1 hPa 0,0 l/m 0 min 0 min 0 W/m 0,0 km/h (0 Bft) 100,00 %
03.02.2019 22:30 0,2 C -1,1 C -2,2 C 92 % 1024,2 hPa 0,0 l/m 0 min 0 min 0 W/m 0,0 km/h (0 Bft) 100,00 %
03.02.2019 22:32 0,2 C -0,6 C -2,2 C 92 % 1024,2 hPa 0,0 l/m 0 min 0 min 0 W/m 0,0 km/h (0 Bft) 97,83 %
03.02.2019 22:34 0,2 C -0,6 C -2,2 C 92 % 1024,3 hPa 0,0 l/m 0 min 0 min 0 W/m 0,0 km/h (0 Bft) 100,00 %
03.02.2019 22:36 0,2 C -0,6 C -2,2 C 92 % 1024,3 hPa 0,0 l/m 0 min 0 min 0 W/m 0,0 km/h (0 Bft) 100,00 %
03.02.2019 22:38 0,2 C -0,6 C -2,2 C 92 % 1024,3 hPa 0,0 l/m 0 min 0 min 0 W/m 0,0 km/h (0 Bft) 100,00 %
03.02.2019 22:40 0,2 C -0,6 C -2,2 C 92 % 1024,3 hPa 0,0 l/m 0 min 0 min 0 W/m 0,0 km/h (0 Bft) 100,00 %
03.02.2019 22:42 0,2 C -0,6 C -1,7 C 92 % 1024,3 hPa 0,0 l/m 0 min 0 min 0 W/m 0,0 km/h (0 Bft) 94,29 %
03.02.2019 22:44 0,2 C -0,6 C -1,7 C 92 % 1024,3 hPa 0,0 l/m 0 min 0 min 0 W/m 0,0 km/h (0 Bft) 97,87 %
03.02.2019 22:46 0,2 C -0,6 C -1,7 C 92 % 1024,4 hPa 0,0 l/m 0 min 0 min 0 W/m 0,0 km/h (0 Bft) 97,87 %
03.02.2019 22:48 0,2 C -0,6 C -1,7 C 92 % 1024,3 hPa 0,0 l/m 0 min 0 min 0 W/m 0,0 km/h (0 Bft) 100,00 %
03.02.2019 22:50 0,2 C 0,0 C -1,1 C 92 % 1024,3 hPa 0,0 l/m 0 min 0 min 0 W/m 0,0 km/h (0 Bft) 98,00 %
03.02.2019 22:52 0,2 C 0,0 C -1,1 C 92 % 1024,3 hPa 0,0 l/m 0 min 0 min 0 W/m 0,0 km/h (0 Bft) 93,88 %
03.02.2019 22:54 0,2 C 0,0 C -1,1 C 93 % 1024,3 hPa 0,0 l/m 0 min 0 min 0 W/m 0,0 km/h (0 Bft) 93,62 %
03.02.2019 22:56 0,3 C 0,0 C -1,1 C 93 % 1024,3 hPa 0,0 l/m 0 min 0 min 0 W/m 0,0 km/h (0 Bft) 95,65 %
03.02.2019 22:58 0,3 C 0,0 C -1,1 C 93 % 1024,3 hPa 0,0 l/m 0 min 0 min 0 W/m 0,0 km/h (0 Bft) 97,22 %
03.02.2019 23:00 0,3 C 0,0 C -0,6 C 93 % 1024,3 hPa 0,0 l/m 0 min 0 min 0 W/m 0,0 km/h (0 Bft) 96,23 %
03.02.2019 23:02 0,4 C 0,0 C -0,6 C 93 % 1024,3 hPa 0,0 l/m 0 min 0 min 0 W/m 3,2 km/h (1 Bft) 96,00 %
03.02.2019 23:04 0,4 C 0,0 C -0,6 C 93 % 1024,4 hPa 0,0 l/m 0 min 0 min 0 W/m 0,0 km/h (0 Bft) 95,65 %
03.02.2019 23:06 0,4 C 0,0 C -1,1 C 93 % 1024,4 hPa 0,0 l/m 0 min 0 min 0 W/m 0,0 km/h (0 Bft) 94,00 %
03.02.2019 23:08 0,4 C 0,0 C -1,1 C 93 % 1024,3 hPa 0,0 l/m 0 min 0 min 0 W/m 0,0 km/h (0 Bft) 95,65 %
03.02.2019 23:10 0,4 C 0,0 C -1,1 C 93 % 1024,4 hPa 0,0 l/m 0 min 0 min 0 W/m 0,0 km/h (0 Bft) 95,74 %
03.02.2019 23:12 0,5 C 0,0 C -0,6 C 93 % 1024,3 hPa 0,0 l/m 0 min 0 min 0 W/m 0,0 km/h (0 Bft) 94,29 %
03.02.2019 23:14 0,5 C 0,0 C -0,6 C 93 % 1024,3 hPa 0,0 l/m 0 min 0 min 0 W/m 0,0 km/h (0 Bft) 95,74 %
03.02.2019 23:16 0,5 C 0,0 C -0,6 C 93 % 1024,3 hPa 0,0 l/m 0 min 0 min 0 W/m 0,0 km/h (0 Bft) 96,23 %
03.02.2019 23:18 0,5 C 0,0 C -0,6 C 94 % 1024,4 hPa 0,0 l/m 0 min 0 min 0 W/m 0,0 km/h (0 Bft) 94,00 %
03.02.2019 23:20 0,5 C 0,0 C -0,6 C 94 % 1024,3 hPa 0,0 l/m 0 min 0 min 0 W/m 0,0 km/h (0 Bft) 95,74 %
03.02.2019 23:22 0,5 C 0,0 C -0,6 C 94 % 1024,4 hPa 0,0 l/m 0 min 0 min 0 W/m 0,0 km/h (0 Bft) 95,92 %
03.02.2019 23:24 0,5 C 0,0 C -0,6 C 94 % 1024,6 hPa 0,0 l/m 0 min 0 min 0 W/m 0,0 km/h (0 Bft) 93,62 %
03.02.2019 23:26 0,5 C 0,0 C -0,6 C 94 % 1024,6 hPa 0,0 l/m 0 min 0 min 0 W/m 0,0 km/h (0 Bft) 97,87 %
03.02.2019 23:28 0,5 C 0,0 C -0,6 C 94 % 1024,6 hPa 0,0 l/m 0 min 0 min 0 W/m 6,4 km/h (2 Bft) 97,87 %
03.02.2019 23:30 0,5 C 0,0 C -0,6 C 94 % 1024,5 hPa 0,0 l/m 0 min 0 min 0 W/m 3,2 km/h (1 Bft) 97,14 %
03.02.2019 23:32 0,6 C 0,0 C -0,6 C 94 % 1024,6 hPa 0,0 l/m 0 min 0 min 0 W/m 3,2 km/h (1 Bft) 96,23 %
03.02.2019 23:34 0,6 C 0,0 C -0,6 C 94 % 1024,6 hPa 0,0 l/m 0 min 0 min 0 W/m 0,0 km/h (0 Bft) 95,74 %
03.02.2019 23:36 0,6 C 0,0 C -0,6 C 94 % 1024,6 hPa 0,0 l/m 0 min 0 min 0 W/m 0,0 km/h (0 Bft) 98,00 %
03.02.2019 23:38 0,6 C 0,0 C -0,6 C 94 % 1024,6 hPa 0,0 l/m 0 min 0 min 0 W/m 0,0 km/h (0 Bft) 97,83 %
03.02.2019 23:40 0,6 C 0,0 C -0,6 C 94 % 1024,6 hPa 0,0 l/m 0 min 0 min 0 W/m 0,0 km/h (0 Bft) 97,87 %
03.02.2019 23:42 0,6 C 0,0 C -0,6 C 94 % 1024,5 hPa 0,0 l/m 0 min 0 min 0 W/m 0,0 km/h (0 Bft) 97,87 %
03.02.2019 23:44 0,6 C 0,0 C -0,6 C 94 % 1024,5 hPa 0,0 l/m 0 min 0 min 0 W/m 0,0 km/h (0 Bft) 95,92 %
03.02.2019 23:46 0,6 C 0,0 C -1,1 C 94 % 1024,5 hPa 0,0 l/m 0 min 0 min 0 W/m 0,0 km/h (0 Bft) 95,74 %
03.02.2019 23:48 0,6 C 0,0 C -0,6 C 94 % 1024,5 hPa 0,0 l/m 0 min 0 min 0 W/m 0,0 km/h (0 Bft) 100,00 %
03.02.2019 23:50 0,6 C 0,0 C -1,1 C 94 % 1024,5 hPa 0,0 l/m 0 min 0 min 0 W/m 0,0 km/h (0 Bft) 97,87 %
03.02.2019 23:52 0,5 C 0,0 C -1,1 C 94 % 1024,5 hPa 0,0 l/m 0 min 0 min 0 W/m 0,0 km/h (0 Bft) 96,23 %
03.02.2019 23:54 0,5 C 0,0 C -1,1 C 94 % 1024,4 hPa 0,0 l/m 0 min 0 min 0 W/m 0,0 km/h (0 Bft) 98,00 %
03.02.2019 23:56 0,5 C 0,0 C -1,1 C 94 % 1024,4 hPa 0,0 l/m 0 min 0 min 0 W/m 0,0 km/h (0 Bft) 95,92 %
03.02.2019 23:58 0,5 C 0,0 C -1,1 C 94 % 1024,4 hPa 0,0 l/m 0 min 0 min 0 W/m 0,0 km/h (0 Bft) 97,14 %
_ Min-Zeit 06:52 06:32 06:18 15:06 00:02 - - - - 00:28 13:24
Minimum _ -0,6 C -1,7 C -2,2 C 74 % 1008,1 hPa - - - - 0,0 km/h (0 Bft) 43,59 %
_ Max-Zeit 15:02 13:26 12:52 00:28 23:24 00:00 12:08 08:48 13:34 11:24 00:02
Maximum _ 7,1 C 16,7 C 11,1 C 99 % 1024,6 hPa 0,0 l/m 4 min 2 min 523 W/m 25,7 km/h
W-NW (4 Bft)
100,00 %
Durchschnitt _ 1,8 C 2,7 C 0,4 C 92 % 1017,1 hPa #0,0 l/m #5:02 h #2 min. 203 W/m 4,0 km/h (1 Bft) 96,08 %
© 2019 W. Hausmann